Observation data for Romero 11SSW on 10/14/2019      Previous  Date       Current Mesonet Observations  Soil Data  Daily Summary Page  Observations in Plain Language
KBR1 140500Z 07007KT 11/M02 A2998 RMK A01 T01061017  RH  042%=      5-min Rain = 0
KBR1 140501Z 08007KT 11/M02 A2998 RMK A01 T01071017  RH  042%=      5-min Rain = 0
KBR1 140502Z 07008KT 11/M02 A2998 RMK A01 T01071016  RH  042%=      5-min Rain = 0
KBR1 140503Z 07008KT 11/M02 A2998 RMK A01 T01071016  RH  042%=      5-min Rain = 0
KBR1 140504Z 08009KT 11/M02 A2998 RMK A01 T01081015  RH  042%=      5-min Rain = 0
KBR1 140505Z 08008KT 11/M02 A2998 RMK A01 T01071015  RH  043%=      5-min Rain = 0
KBR1 140506Z 08007KT 11/M02 A2998 RMK A01 T01071015  RH  042%=      5-min Rain = 0
KBR1 140507Z 08007KT 11/M02 A2998 RMK A01 T01081015  RH  042%=      5-min Rain = 0
KBR1 140508Z 08006KT 11/M02 A2998 RMK A01 T01081016  RH  042%=      5-min Rain = 0
KBR1 140509Z 08007KT 11/M02 A2997 RMK A01 T01081015  RH  042%=      5-min Rain = 0
KBR1 140510Z 08009KT 11/M01 A2997 RMK A01 T01081014  RH  043%=      5-min Rain = 0
KBR1 140511Z 08009KT 11/M01 A2997 RMK A01 T01061014  RH  043%=      5-min Rain = 0
KBR1 140512Z 08009KT 11/M01 A2997 RMK A01 T01061014  RH  043%=      5-min Rain = 0
KBR1 140513Z 07009KT 11/M01 A2997 RMK A01 T01061014  RH  043%=      5-min Rain = 0
KBR1 140514Z 08010KT 11/M01 A2997 RMK A01 T01061014  RH  043%=      5-min Rain = 0
KBR1 140515Z 08010KT 11/M01 A2997 RMK A01 T01061014  RH  043%=      5-min Rain = 0
KBR1 140516Z 08010KT 11/M01 A2997 RMK A01 T01071014  RH  043%=      5-min Rain = 0
KBR1 140517Z 08010KT 11/M01 A2997 RMK A01 T01071014  RH  043%=      5-min Rain = 0
KBR1 140518Z 08010KT 11/M01 A2997 RMK A01 T01081014  RH  043%=      5-min Rain = 0
KBR1 140519Z 08009KT 11/M01 A2997 RMK A01 T01101014  RH  042%=      5-min Rain = 0
KBR1 140520Z 08009KT 11/M01 A2997 RMK A01 T01101014  RH  042%=      5-min Rain = 0
KBR1 140521Z 08009KT 11/M01 A2997 RMK A01 T01101014  RH  042%=      5-min Rain = 0
KBR1 140522Z 08009KT 11/M01 A2997 RMK A01 T01101014  RH  042%=      5-min Rain = 0
KBR1 140523Z 08009KT 11/M01 A2997 RMK A01 T01101014  RH  042%=      5-min Rain = 0
KBR1 140524Z 08009KT 11/M01 A2997 RMK A01 T01101013  RH  042%=      5-min Rain = 0
KBR1 140525Z 08009KT 11/M01 A2997 RMK A01 T01091013  RH  043%=      5-min Rain = 0
KBR1 140526Z 08008KT 11/M01 A2997 RMK A01 T01071012  RH  043%=      5-min Rain = 0
KBR1 140527Z 08008KT 11/M01 A2997 RMK A01 T01061013  RH  044%=      5-min Rain = 0
KBR1 140528Z 08008KT 11/M01 A2997 RMK A01 T01061013  RH  044%=      5-min Rain = 0
KBR1 140529Z 08008KT 11/M01 A2997 RMK A01 T01061013  RH  044%=      5-min Rain = 0
KBR1 140530Z 08009KT 11/M01 A2997 RMK A01 T01061012  RH  044%=      5-min Rain = 0
KBR1 140531Z 09009KT 11/M01 A2997 RMK A01 T01061012  RH  044%=      5-min Rain = 0
KBR1 140532Z 09009KT 11/M01 A2997 RMK A01 T01051012  RH  044%=      5-min Rain = 0
KBR1 140533Z 08009KT 11/M01 A2997 RMK A01 T01051012  RH  044%=      5-min Rain = 0
KBR1 140534Z 08009KT 11/M01 A2997 RMK A01 T01061012  RH  044%=      5-min Rain = 0
KBR1 140535Z 08009KT 11/M01 A2997 RMK A01 T01051012  RH  044%=      5-min Rain = 0
KBR1 140536Z 08009KT 10/M01 A2997 RMK A01 T01041011  RH  045%=      5-min Rain = 0
KBR1 140537Z 08008KT 10/M01 A2997 RMK A01 T01031011  RH  045%=      5-min Rain = 0
KBR1 140538Z 09009KT 10/M01 A2997 RMK A01 T01031011  RH  045%=      5-min Rain = 0
KBR1 140539Z 09009KT 10/M01 A2997 RMK A01 T01021011  RH  045%=      5-min Rain = 0
KBR1 140540Z 08009KT 10/M01 A2997 RMK A01 T01031011  RH  045%=      5-min Rain = 0
KBR1 140541Z 08009KT 10/M01 A2997 RMK A01 T01041011  RH  045%=      5-min Rain = 0
KBR1 140542Z 09009KT 11/M01 A2997 RMK A01 T01051011  RH  045%=      5-min Rain = 0
KBR1 140543Z 09009KT 11/M01 A2997 RMK A01 T01051011  RH  044%=      5-min Rain = 0
KBR1 140544Z 10009KT 11/M01 A2997 RMK A01 T01071011  RH  044%=      5-min Rain = 0
KBR1 140545Z 10009KT 11/M01 A2997 RMK A01 T01091011  RH  043%=      5-min Rain = 0
KBR1 140546Z 10009KT 11/M01 A2997 RMK A01 T01111012  RH  042%=      5-min Rain = 0
KBR1 140547Z 10009KT 11/M01 A2997 RMK A01 T01131012  RH  042%=      5-min Rain = 0
KBR1 140548Z 10009KT 11/M01 A2997 RMK A01 T01141013  RH  041%=      5-min Rain = 0
KBR1 140549Z 10009KT 12/M01 A2997 RMK A01 T01151013  RH  041%=      5-min Rain = 0
KBR1 140550Z 10009KT 12/M01 A2997 RMK A01 T01151012  RH  041%=      5-min Rain = 0
KBR1 140551Z 10009KT 11/M01 A2997 RMK A01 T01141012  RH  041%=      5-min Rain = 0
KBR1 140552Z 10009KT 11/M01 A2997 RMK A01 T01141012  RH  042%=      5-min Rain = 0
KBR1 140553Z 10008KT 11/M01 A2997 RMK A01 T01141012  RH  042%=      5-min Rain = 0
KBR1 140554Z 10008KT 11/M01 A2997 RMK A01 T01131012  RH  042%=      5-min Rain = 0
KBR1 140555Z 09008KT 11/M01 A2997 RMK A01 T01111012  RH  043%=      5-min Rain = 0
KBR1 140556Z 09008KT 11/M01 A2997 RMK A01 T01101011  RH  043%=      5-min Rain = 0
KBR1 140557Z 09008KT 11/M01 A2997 RMK A01 T01091011  RH  044%=      5-min Rain = 0
KBR1 140558Z 09008KT 11/M01 A2997 RMK A01 T01071010  RH  044%=      5-min Rain = 0
KBR1 140559Z 09008KT 11/M01 A2997 RMK A01 T01051010  RH  045%=      5-min Rain = 0
KBR1 140600Z 09008KT 11/M01 A2997 RMK A01 T01051010  RH  045%=      5-min Rain = 0
KBR1 140601Z 09008KT 10/M01 A2997 RMK A01 T01041009  RH  045%=      5-min Rain = 0
KBR1 140602Z 08007KT 10/M01 A2997 RMK A01 T01031009  RH  046%=      5-min Rain = 0
KBR1 140603Z 08007KT 10/M01 A2997 RMK A01 T01021008  RH  046%=      5-min Rain = 0
KBR1 140604Z 08008KT 10/M01 A2997 RMK A01 T01011008  RH  047%=      5-min Rain = 0
KBR1 140605Z 08007KT 10/M01 A2997 RMK A01 T01001008  RH  047%=      5-min Rain = 0
KBR1 140606Z 08007KT 10/M01 A2997 RMK A01 T00991007  RH  048%=      5-min Rain = 0
KBR1 140607Z 08007KT 10/M01 A2997 RMK A01 T00981007  RH  048%=      5-min Rain = 0
KBR1 140608Z 08007KT 10/M01 A2997 RMK A01 T00971006  RH  048%=      5-min Rain = 0
KBR1 140609Z 08007KT 10/M01 A2997 RMK A01 T00971006  RH  049%=      5-min Rain = 0
KBR1 140610Z 08006KT 10/M01 A2997 RMK A01 T00971006  RH  049%=      5-min Rain = 0
KBR1 140611Z 08006KT 10/M01 A2997 RMK A01 T00991006  RH  048%=      5-min Rain = 0
KBR1 140612Z 09006KT 10/M01 A2997 RMK A01 T01001006  RH  048%=      5-min Rain = 0
KBR1 140613Z 09005KT 10/M01 A2997 RMK A01 T01021006  RH  047%=      5-min Rain = 0
KBR1 140614Z 09005KT 10/M01 A2997 RMK A01 T01021006  RH  047%=      5-min Rain = 0
KBR1 140615Z 09005KT 10/M01 A2997 RMK A01 T01031006  RH  046%=      5-min Rain = 0
KBR1 140616Z 09005KT 10/M01 A2997 RMK A01 T01041006  RH  046%=      5-min Rain = 0
KBR1 140617Z 09005KT 10/M01 A2997 RMK A01 T01011006  RH  047%=      5-min Rain = 0
KBR1 140618Z 09005KT 10/M01 A2997 RMK A01 T01011007  RH  047%=      5-min Rain = 0
KBR1 140619Z 09005KT 10/M01 A2996 RMK A01 T01031006  RH  047%=      5-min Rain = 0
KBR1 140620Z 09005KT 11/M01 A2996 RMK A01 T01051006  RH  046%=      5-min Rain = 0
KBR1 140621Z 08005KT 10/M01 A2996 RMK A01 T01041006  RH  046%=      5-min Rain = 0
KBR1 140622Z 08005KT 10/M01 A2996 RMK A01 T01041006  RH  047%=      5-min Rain = 0
KBR1 140623Z 08005KT 10/M01 A2996 RMK A01 T01041006  RH  047%=      5-min Rain = 0
KBR1 140624Z 09005KT 10/M01 A2996 RMK A01 T01031005  RH  047%=      5-min Rain = 0
KBR1 140625Z 09005KT 10/M01 A2996 RMK A01 T01021005  RH  048%=      5-min Rain = 0
KBR1 140626Z 09005KT 10/M01 A2996 RMK A01 T01011005  RH  048%=      5-min Rain = 0
KBR1 140627Z 08005KT 10/M01 A2996 RMK A01 T00991005  RH  048%=      5-min Rain = 0
KBR1 140628Z 08005KT 10/M01 A2996 RMK A01 T00971005  RH  049%=      5-min Rain = 0
KBR1 140629Z 08005KT 10/M00 A2996 RMK A01 T00971004  RH  049%=      5-min Rain = 0
KBR1 140630Z 08005KT 10/M00 A2996 RMK A01 T00981004  RH  049%=      5-min Rain = 0
KBR1 140631Z 07004KT 10/M00 A2996 RMK A01 T01001003  RH  049%=      5-min Rain = 0
KBR1 140632Z 06005KT 10/M00 A2996 RMK A01 T00981003  RH  049%=      5-min Rain = 0
KBR1 140633Z 06005KT 10/M00 A2996 RMK A01 T00961003  RH  050%=      5-min Rain = 0
KBR1 140634Z 06004KT 09/M00 A2996 RMK A01 T00941003  RH  051%=      5-min Rain = 0
KBR1 140635Z 06004KT 09/M00 A2996 RMK A01 T00931003  RH  051%=      5-min Rain = 0
KBR1 140636Z 06004KT 09/M00 A2996 RMK A01 T00941003  RH  051%=      5-min Rain = 0
KBR1 140637Z 06004KT 09/M00 A2996 RMK A01 T00941003  RH  051%=      5-min Rain = 0
KBR1 140638Z 06003KT 09/M00 A2996 RMK A01 T00941003  RH  051%=      5-min Rain = 0
KBR1 140639Z 05004KT 09/M00 A2996 RMK A01 T00941003  RH  051%=      5-min Rain = 0
KBR1 140640Z 04004KT 09/M00 A2996 RMK A01 T00931003  RH  051%=      5-min Rain = 0
KBR1 140641Z 05003KT 09/M00 A2996 RMK A01 T00911003  RH  052%=      5-min Rain = 0
KBR1 140642Z 04003KT 09/M00 A2996 RMK A01 T00881002  RH  053%=      5-min Rain = 0
KBR1 140643Z 02002KT 09/M00 A2996 RMK A01 T00851002  RH  054%=      5-min Rain = 0
KBR1 140644Z 02002KT 08/M00 A2996 RMK A01 T00821002  RH  056%=      5-min Rain = 0
KBR1 140645Z 33002KT 08/M00 A2996 RMK A01 T00801002  RH  056%=      5-min Rain = 0
KBR1 140646Z 33002KT 08/M00 A2996 RMK A01 T00781002  RH  057%=      5-min Rain = 0
KBR1 140647Z 35003KT 08/M00 A2996 RMK A01 T00751002  RH  058%=      5-min Rain = 0
KBR1 140648Z 35003KT 07/M00 A2996 RMK A01 T00731002  RH  059%=      5-min Rain = 0
KBR1 140649Z 35003KT 07/M00 A2996 RMK A01 T00731002  RH  059%=      5-min Rain = 0
KBR1 140650Z 34003KT 07/M00 A2996 RMK A01 T00741002  RH  059%=      5-min Rain = 0
KBR1 140651Z 35003KT 07/M00 A2996 RMK A01 T00741002  RH  059%=      5-min Rain = 0
KBR1 140652Z 35003KT 08/M00 A2996 RMK A01 T00751002  RH  058%=      5-min Rain = 0
KBR1 140653Z 35004KT 08/M00 A2996 RMK A01 T00751001  RH  059%=      5-min Rain = 0
KBR1 140654Z 35004KT 08/00 A2996 RMK A01 T00750000  RH  059%=      5-min Rain = 0
KBR1 140655Z 34004KT 08/00 A2996 RMK A01 T00750000  RH  059%=      5-min Rain = 0
KBR1 140656Z 35003KT 07/00 A2996 RMK A01 T007400-0  RH  059%=      5-min Rain = 0
KBR1 140657Z 35003KT 07/M00 A2996 RMK A01 T00741001  RH  059%=      5-min Rain = 0
KBR1 140658Z 00003KT 07/M00 A2996 RMK A01 T00741001  RH  059%=      5-min Rain = 0
KBR1 140659Z 36003KT 07/M00 A2996 RMK A01 T00741001  RH  059%=      5-min Rain = 0
KBR1 140700Z 35003KT 07/M00 A2996 RMK A01 T00741001  RH  059%=      5-min Rain = 0
KBR1 140701Z 36003KT 07/M00 A2996 RMK A01 T00731001  RH  059%=      5-min Rain = 0
KBR1 140702Z 00003KT 07/M00 A2996 RMK A01 T00721001  RH  060%=      5-min Rain = 0
KBR1 140703Z 35004KT 07/M00 A2996 RMK A01 T00721002  RH  059%=      5-min Rain = 0
KBR1 140704Z 35004KT 07/M00 A2996 RMK A01 T00721002  RH  059%=      5-min Rain = 0
KBR1 140705Z 35004KT 07/M00 A2996 RMK A01 T00721002  RH  059%=      5-min Rain = 0
KBR1 140706Z 34003KT 07/M00 A2996 RMK A01 T00711002  RH  060%=      5-min Rain = 0
KBR1 140707Z 32003KT 07/M00 A2996 RMK A01 T00701001  RH  061%=      5-min Rain = 0
KBR1 140708Z 32003KT 07/M00 A2996 RMK A01 T00681001  RH  061%=      5-min Rain = 0
KBR1 140709Z 31003KT 07/M00 A2996 RMK A01 T00681002  RH  061%=      5-min Rain = 0
KBR1 140710Z 31003KT 07/M00 A2996 RMK A01 T00681003  RH  060%=      5-min Rain = 0
KBR1 140711Z 31004KT 07/M00 A2996 RMK A01 T00701003  RH  060%=      5-min Rain = 0
KBR1 140712Z 32004KT 07/M00 A2996 RMK A01 T00721003  RH  059%=      5-min Rain = 0
KBR1 140713Z 32004KT 07/M00 A2996 RMK A01 T00741003  RH  058%=      5-min Rain = 0
KBR1 140714Z 32004KT 07/M00 A2996 RMK A01 T00741003  RH  058%=      5-min Rain = 0
KBR1 140715Z 32004KT 07/M00 A2996 RMK A01 T00731002  RH  059%=      5-min Rain = 0
KBR1 140716Z 32004KT 07/M00 A2996 RMK A01 T00721002  RH  059%=      5-min Rain = 0
KBR1 140717Z 33005KT 07/M00 A2996 RMK A01 T00711002  RH  060%=      5-min Rain = 0
KBR1 140718Z 33005KT 07/M00 A2996 RMK A01 T00701002  RH  060%=      5-min Rain = 0
KBR1 140719Z 33005KT 07/M00 A2996 RMK A01 T00691001  RH  061%=      5-min Rain = 0
KBR1 140720Z 33005KT 07/M00 A2996 RMK A01 T00691001  RH  061%=      5-min Rain = 0
KBR1 140721Z 33005KT 07/M00 A2996 RMK A01 T00681002  RH  061%=      5-min Rain = 0
KBR1 140722Z 33005KT 07/M00 A2996 RMK A01 T00691002  RH  061%=      5-min Rain = 0
KBR1 140723Z 33005KT 07/M00 A2996 RMK A01 T00691002  RH  061%=      5-min Rain = 0
KBR1 140724Z 33004KT 07/M00 A2996 RMK A01 T00691002  RH  060%=      5-min Rain = 0
KBR1 140725Z 33003KT 07/M00 A2996 RMK A01 T00691002  RH  060%=      5-min Rain = 0
KBR1 140726Z 33003KT 07/M00 A2996 RMK A01 T00701002  RH  060%=      5-min Rain = 0
KBR1 140727Z 33003KT 07/M00 A2996 RMK A01 T00701002  RH  060%=      5-min Rain = 0
KBR1 140728Z 33003KT 07/M00 A2996 RMK A01 T00711002  RH  060%=      5-min Rain = 0
KBR1 140729Z 33003KT 07/M00 A2996 RMK A01 T00721002  RH  059%=      5-min Rain = 0
KBR1 140730Z 33003KT 07/M00 A2996 RMK A01 T00731002  RH  059%=      5-min Rain = 0
KBR1 140731Z 33003KT 08/M00 A2996 RMK A01 T00751002  RH  058%=      5-min Rain = 0
KBR1 140732Z 33002KT 08/M00 A2996 RMK A01 T00751002  RH  058%=      5-min Rain = 0
KBR1 140733Z 34003KT 08/M00 A2996 RMK A01 T00751002  RH  058%=      5-min Rain = 0
KBR1 140734Z 34002KT 08/M00 A2996 RMK A01 T00751003  RH  058%=      5-min Rain = 0
KBR1 140735Z 33002KT 08/M00 A2996 RMK A01 T00761003  RH  057%=      5-min Rain = 0
KBR1 140736Z 33003KT 08/M00 A2996 RMK A01 T00771003  RH  057%=      5-min Rain = 0
KBR1 140737Z 32003KT 08/M00 A2996 RMK A01 T00781003  RH  056%=      5-min Rain = 0
KBR1 140738Z 32004KT 08/M00 A2996 RMK A01 T00791003  RH  056%=      5-min Rain = 0
KBR1 140739Z 31004KT 08/M00 A2996 RMK A01 T00811003  RH  055%=      5-min Rain = 0
KBR1 140740Z 32004KT 08/M00 A2996 RMK A01 T00811003  RH  055%=      5-min Rain = 0
KBR1 140741Z 31004KT 08/M00 A2996 RMK A01 T00811003  RH  056%=      5-min Rain = 0
KBR1 140742Z 31004KT 08/M00 A2996 RMK A01 T00801003  RH  056%=      5-min Rain = 0
KBR1 140743Z 31004KT 08/M00 A2996 RMK A01 T00791003  RH  056%=      5-min Rain = 0
KBR1 140744Z 31005KT 08/M00 A2996 RMK A01 T00781003  RH  056%=      5-min Rain = 0
KBR1 140745Z 31005KT 08/M00 A2996 RMK A01 T00771003  RH  057%=      5-min Rain = 0
KBR1 140746Z 31004KT 08/M00 A2996 RMK A01 T00771003  RH  057%=      5-min Rain = 0
KBR1 140747Z 31004KT 08/M00 A2996 RMK A01 T00761003  RH  057%=      5-min Rain = 0
KBR1 140748Z 31005KT 07/M00 A2996 RMK A01 T00741003  RH  058%=      5-min Rain = 0
KBR1 140749Z 31005KT 07/M00 A2996 RMK A01 T00721003  RH  059%=      5-min Rain = 0
KBR1 140750Z 30005KT 07/M00 A2996 RMK A01 T00711003  RH  059%=      5-min Rain = 0
KBR1 140751Z 30005KT 07/M00 A2996 RMK A01 T00711003  RH  059%=      5-min Rain = 0
KBR1 140752Z 30005KT 07/M00 A2996 RMK A01 T00721003  RH  059%=      5-min Rain = 0
KBR1 140753Z 30004KT 07/M00 A2996 RMK A01 T00741003  RH  058%=      5-min Rain = 0
KBR1 140754Z 30004KT 07/M00 A2996 RMK A01 T00741003  RH  058%=      5-min Rain = 0
KBR1 140755Z 30005KT 08/M00 A2996 RMK A01 T00751003  RH  058%=      5-min Rain = 0
KBR1 140756Z 30005KT 08/M00 A2996 RMK A01 T00751003  RH  058%=      5-min Rain = 0
KBR1 140757Z 30005KT 08/M00 A2996 RMK A01 T00761003  RH  058%=      5-min Rain = 0
KBR1 140758Z 30006KT 08/M00 A2996 RMK A01 T00761002  RH  058%=      5-min Rain = 0
KBR1 140759Z 30007KT 08/M00 A2996 RMK A01 T00751002  RH  058%=      5-min Rain = 0
KBR1 140800Z 30007KT 07/M00 A2996 RMK A01 T00741002  RH  058%=      5-min Rain = 0
KBR1 140801Z 30007KT 07/M00 A2996 RMK A01 T00741002  RH  059%=      5-min Rain = 0
KBR1 140802Z 30007KT 07/M00 A2996 RMK A01 T00741002  RH  059%=      5-min Rain = 0
KBR1 140803Z 29007KT 07/M00 A2996 RMK A01 T00731002  RH  059%=      5-min Rain = 0
KBR1 140804Z 29006KT 07/M00 A2996 RMK A01 T00731003  RH  059%=      5-min Rain = 0
KBR1 140805Z 28005KT 07/M00 A2996 RMK A01 T00731003  RH  058%=      5-min Rain = 0
KBR1 140806Z 28005KT 07/M00 A2996 RMK A01 T00741004  RH  058%=      5-min Rain = 0
KBR1 140807Z 27005KT 07/M00 A2996 RMK A01 T00741004  RH  057%=      5-min Rain = 0
KBR1 140808Z 27004KT 08/M01 A2996 RMK A01 T00761005  RH  057%=      5-min Rain = 0
KBR1 140809Z 26004KT 08/M01 A2996 RMK A01 T00771005  RH  056%=      5-min Rain = 0
KBR1 140810Z 27005KT 08/M01 A2996 RMK A01 T00781005  RH  056%=      5-min Rain = 0
KBR1 140811Z 26005KT 08/M01 A2996 RMK A01 T00781005  RH  055%=      5-min Rain = 0
KBR1 140812Z 26005KT 08/M01 A2996 RMK A01 T00791005  RH  055%=      5-min Rain = 0
KBR1 140813Z 26006KT 08/M01 A2996 RMK A01 T00791006  RH  055%=      5-min Rain = 0
KBR1 140814Z 25006KT 08/M01 A2996 RMK A01 T00791006  RH  055%=      5-min Rain = 0
KBR1 140815Z 24006KT 08/M01 A2996 RMK A01 T00801006  RH  054%=      5-min Rain = 0
KBR1 140816Z 24006KT 08/M01 A2996 RMK A01 T00811007  RH  054%=      5-min Rain = 0
KBR1 140817Z 24006KT 08/M01 A2996 RMK A01 T00831007  RH  053%=      5-min Rain = 0
KBR1 140818Z 24005KT 08/M01 A2996 RMK A01 T00841008  RH  052%=      5-min Rain = 0
KBR1 140819Z 24005KT 09/M01 A2996 RMK A01 T00851008  RH  052%=      5-min Rain = 0
KBR1 140820Z 24005KT 09/M01 A2996 RMK A01 T00861009  RH  051%=      5-min Rain = 0
KBR1 140821Z 23005KT 09/M01 A2996 RMK A01 T00881008  RH  051%=      5-min Rain = 0
KBR1 140822Z 23006KT 09/M01 A2996 RMK A01 T00881008  RH  051%=      5-min Rain = 0
KBR1 140823Z 23006KT 09/M01 A2996 RMK A01 T00871009  RH  051%=      5-min Rain = 0
KBR1 140824Z 23005KT 09/M01 A2996 RMK A01 T00861009  RH  051%=      5-min Rain = 0
KBR1 140825Z 23007KT 09/M01 A2996 RMK A01 T00871009  RH  051%=      5-min Rain = 0
KBR1 140826Z 23006KT 09/M01 A2996 RMK A01 T00871009  RH  051%=      5-min Rain = 0
KBR1 140827Z 24007KT 09/M01 A2996 RMK A01 T00871009  RH  051%=      5-min Rain = 0
KBR1 140828Z 25007KT 09/M01 A2996 RMK A01 T00881010  RH  050%=      5-min Rain = 0
KBR1 140829Z 25006KT 09/M01 A2996 RMK A01 T00881009  RH  051%=      5-min Rain = 0
KBR1 140830Z 24006KT 09/M01 A2996 RMK A01 T00851008  RH  052%=      5-min Rain = 0
KBR1 140831Z 25006KT 08/M01 A2996 RMK A01 T00841008  RH  052%=      5-min Rain = 0
KBR1 140832Z 25006KT 08/M01 A2996 RMK A01 T00831009  RH  052%=      5-min Rain = 0
KBR1 140833Z 24006KT 08/M01 A2996 RMK A01 T00841009  RH  052%=      5-min Rain = 0
KBR1 140834Z 25006KT 09/M01 A2996 RMK A01 T00851009  RH  052%=      5-min Rain = 0
KBR1 140835Z 25006KT 09/M01 A2996 RMK A01 T00851009  RH  052%=      5-min Rain = 0
KBR1 140836Z 25005KT 09/M01 A2996 RMK A01 T00861009  RH  051%=      5-min Rain = 0
KBR1 140837Z 25005KT 09/M01 A2996 RMK A01 T00861009  RH  051%=      5-min Rain = 0
KBR1 140838Z 25005KT 09/M01 A2996 RMK A01 T00861009  RH  051%=      5-min Rain = 0
KBR1 140839Z 24005KT 09/M01 A2996 RMK A01 T00861009  RH  051%=      5-min Rain = 0
KBR1 140840Z 24004KT 09/M01 A2996 RMK A01 T00861009  RH  051%=      5-min Rain = 0
KBR1 140841Z 25004KT 09/M01 A2996 RMK A01 T00871010  RH  051%=      5-min Rain = 0
KBR1 140842Z 24004KT 09/M01 A2996 RMK A01 T00871009  RH  051%=      5-min Rain = 0
KBR1 140843Z 23004KT 09/M01 A2996 RMK A01 T00871009  RH  051%=      5-min Rain = 0
KBR1 140844Z 24005KT 09/M01 A2996 RMK A01 T00871010  RH  050%=      5-min Rain = 0
KBR1 140845Z 25005KT 09/M01 A2996 RMK A01 T00901010  RH  049%=      5-min Rain = 0
KBR1 140846Z 25005KT 09/M01 A2996 RMK A01 T00921010  RH  049%=      5-min Rain = 0
KBR1 140847Z 26005KT 09/M01 A2996 RMK A01 T00941011  RH  048%=      5-min Rain = 0
KBR1 140848Z 26005KT 10/M01 A2996 RMK A01 T00951011  RH  047%=      5-min Rain = 0
KBR1 140849Z 26006KT 10/M01 A2996 RMK A01 T00961011  RH  047%=      5-min Rain = 0
KBR1 140850Z 25005KT 10/M01 A2996 RMK A01 T00961011  RH  047%=      5-min Rain = 0
KBR1 140851Z 26005KT 10/M01 A2996 RMK A01 T00961012  RH  047%=      5-min Rain = 0
KBR1 140852Z 26005KT 10/M01 A2996 RMK A01 T00971012  RH  046%=      5-min Rain = 0
KBR1 140853Z 27005KT 10/M01 A2996 RMK A01 T00971012  RH  046%=      5-min Rain = 0
KBR1 140854Z 27004KT 10/M01 A2996 RMK A01 T00981012  RH  046%=      5-min Rain = 0
KBR1 140855Z 27004KT 10/M01 A2996 RMK A01 T00971012  RH  047%=      5-min Rain = 0
KBR1 140856Z 27005KT 10/M01 A2996 RMK A01 T00951012  RH  047%=      5-min Rain = 0
KBR1 140857Z 26005KT 09/M01 A2996 RMK A01 T00931012  RH  048%=      5-min Rain = 0
KBR1 140858Z 27003KT 09/M01 A2996 RMK A01 T00921011  RH  048%=      5-min Rain = 0
KBR1 140859Z 29004KT 09/M01 A2996 RMK A01 T00901011  RH  049%=      5-min Rain = 0
KBR1 140900Z 29003KT 09/M01 A2996 RMK A01 T00901011  RH  049%=      5-min Rain = 0
KBR1 140901Z 29003KT 09/M01 A2996 RMK A01 T00891012  RH  049%=      5-min Rain = 0
KBR1 140902Z 29003KT 09/M01 A2996 RMK A01 T00901012  RH  049%=      5-min Rain = 0
KBR1 140903Z 29003KT 09/M01 A2996 RMK A01 T00901013  RH  049%=      5-min Rain = 0
KBR1 140904Z 29003KT 09/M01 A2996 RMK A01 T00911013  RH  048%=      5-min Rain = 0
KBR1 140905Z 29003KT 09/M01 A2996 RMK A01 T00911013  RH  048%=      5-min Rain = 0
KBR1 140906Z 29003KT 09/M01 A2996 RMK A01 T00921013  RH  048%=      5-min Rain = 0
KBR1 140907Z 30002KT 09/M01 A2996 RMK A01 T00921013  RH  048%=      5-min Rain = 0
KBR1 140908Z 30003KT 09/M01 A2996 RMK A01 T00921012  RH  048%=      5-min Rain = 0
KBR1 140909Z 32003KT 09/M01 A2996 RMK A01 T00921012  RH  048%=      5-min Rain = 0
KBR1 140910Z 32003KT 09/M01 A2996 RMK A01 T00921012  RH  048%=      5-min Rain = 0
KBR1 140911Z 33004KT 09/M01 A2996 RMK A01 T00931011  RH  048%=      5-min Rain = 0
KBR1 140912Z 33004KT 09/M01 A2996 RMK A01 T00931012  RH  048%=      5-min Rain = 0
KBR1 140913Z 33005KT 09/M01 A2996 RMK A01 T00941012  RH  047%=      5-min Rain = 0
KBR1 140914Z 34006KT 10/M01 A2996 RMK A01 T00951012  RH  047%=      5-min Rain = 0
KBR1 140915Z 34005KT 10/M01 A2996 RMK A01 T00961010  RH  048%=      5-min Rain = 0
KBR1 140916Z 34005KT 09/M01 A2995 RMK A01 T00941010  RH  048%=      5-min Rain = 0
KBR1 140917Z 33005KT 09/M01 A2996 RMK A01 T00941010  RH  048%=      5-min Rain = 0
KBR1 140918Z 34005KT 09/M01 A2996 RMK A01 T00931010  RH  049%=      5-min Rain = 0
KBR1 140919Z 33006KT 09/M01 A2996 RMK A01 T00911010  RH  049%=      5-min Rain = 0
KBR1 140920Z 34006KT 09/M01 A2995 RMK A01 T00891009  RH  050%=      5-min Rain = 0
KBR1 140921Z 33007KT 09/M01 A2995 RMK A01 T00881009  RH  051%=      5-min Rain = 0
KBR1 140922Z 33007KT 09/M01 A2995 RMK A01 T00871008  RH  051%=      5-min Rain = 0
KBR1 140923Z 33007KT 09/M01 A2995 RMK A01 T00861009  RH  051%=      5-min Rain = 0
KBR1 140924Z 33007KT 09/M01 A2995 RMK A01 T00871009  RH  051%=      5-min Rain = 0
KBR1 140925Z 34007KT 09/M01 A2995 RMK A01 T00881009  RH  051%=      5-min Rain = 0
KBR1 140926Z 34007KT 09/M01 A2995 RMK A01 T00881009  RH  051%=      5-min Rain = 0
KBR1 140927Z 35006KT 09/M01 A2995 RMK A01 T00871009  RH  051%=      5-min Rain = 0
KBR1 140928Z 34006KT 09/M01 A2995 RMK A01 T00861008  RH  051%=      5-min Rain = 0
KBR1 140929Z 34006KT 09/M01 A2995 RMK A01 T00851009  RH  052%=      5-min Rain = 0
KBR1 140930Z 34006KT 09/M01 A2995 RMK A01 T00851010  RH  051%=      5-min Rain = 0
KBR1 140931Z 34005KT 09/M01 A2995 RMK A01 T00851011  RH  051%=      5-min Rain = 0
KBR1 140932Z 34004KT 09/M01 A2995 RMK A01 T00851011  RH  051%=      5-min Rain = 0
KBR1 140933Z 34004KT 09/M01 A2995 RMK A01 T00861011  RH  050%=      5-min Rain = 0
KBR1 140934Z 34004KT 09/M01 A2995 RMK A01 T00861012  RH  050%=      5-min Rain = 0
KBR1 140935Z 34004KT 09/M01 A2995 RMK A01 T00861012  RH  050%=      5-min Rain = 0
KBR1 140936Z 33005KT 09/M01 A2995 RMK A01 T00861012  RH  050%=      5-min Rain = 0
KBR1 140937Z 33005KT 09/M01 A2995 RMK A01 T00871012  RH  050%=      5-min Rain = 0
KBR1 140938Z 33005KT 09/M01 A2995 RMK A01 T00881013  RH  049%=      5-min Rain = 0
KBR1 140939Z 33005KT 09/M01 A2995 RMK A01 T00891013  RH  049%=      5-min Rain = 0
KBR1 140940Z 33005KT 09/M01 A2995 RMK A01 T00901014  RH  048%=      5-min Rain = 0
KBR1 140941Z 32005KT 09/M01 A2995 RMK A01 T00911014  RH  048%=      5-min Rain = 0
KBR1 140942Z 33005KT 09/M01 A2995 RMK A01 T00911014  RH  048%=      5-min Rain = 0
KBR1 140943Z 33004KT 09/M01 A2995 RMK A01 T00911014  RH  048%=      5-min Rain = 0
KBR1 140944Z 32005KT 09/M01 A2995 RMK A01 T00911014  RH  048%=      5-min Rain = 0
KBR1 140945Z 32005KT 09/M01 A2995 RMK A01 T00911014  RH  048%=      5-min Rain = 0
KBR1 140946Z 32005KT 09/M01 A2995 RMK A01 T00911014  RH  048%=      5-min Rain = 0
KBR1 140947Z 32005KT 09/M02 A2995 RMK A01 T00911015  RH  047%=      5-min Rain = 0
KBR1 140948Z 32005KT 09/M02 A2995 RMK A01 T00921015  RH  047%=      5-min Rain = 0
KBR1 140949Z 31005KT 09/M02 A2995 RMK A01 T00921015  RH  047%=      5-min Rain = 0
KBR1 140950Z 31004KT 09/M02 A2995 RMK A01 T00931015  RH  047%=      5-min Rain = 0
KBR1 140951Z 31003KT 09/M02 A2995 RMK A01 T00931015  RH  047%=      5-min Rain = 0
KBR1 140952Z 29003KT 09/M02 A2995 RMK A01 T00921015  RH  047%=      5-min Rain = 0
KBR1 140953Z 30003KT 09/M02 A2995 RMK A01 T00921015  RH  047%=      5-min Rain = 0
KBR1 140954Z 30003KT 09/M02 A2995 RMK A01 T00921015  RH  047%=      5-min Rain = 0
KBR1 140955Z 31004KT 09/M02 A2995 RMK A01 T00921016  RH  047%=      5-min Rain = 0
KBR1 140956Z 30003KT 09/M02 A2995 RMK A01 T00921016  RH  047%=      5-min Rain = 0
KBR1 140957Z 29003KT 09/M02 A2995 RMK A01 T00931016  RH  046%=      5-min Rain = 0
KBR1 140958Z 28003KT 09/M02 A2995 RMK A01 T00931016  RH  046%=      5-min Rain = 0
KBR1 140959Z 29003KT 09/M02 A2995 RMK A01 T00941016  RH  046%=      5-min Rain = 0
KBR1 141000Z 29002KT 09/M02 A2995 RMK A01 T00941017  RH  046%=      5-min Rain = 0
KBR1 141001Z 29002KT 09/M02 A2995 RMK A01 T00941017  RH  046%=      5-min Rain = 0
KBR1 141002Z 27001KT 10/M02 A2995 RMK A01 T00951017  RH  045%=      5-min Rain = 0
KBR1 141003Z 25001KT 10/M02 A2995 RMK A01 T00951017  RH  046%=      5-min Rain = 0
KBR1 141004Z 25002KT 10/M02 A2995 RMK A01 T00951017  RH  045%=      5-min Rain = 0
KBR1 141005Z 23001KT 10/M02 A2995 RMK A01 T00961017  RH  045%=      5-min Rain = 0
KBR1 141006Z 25002KT 10/M02 A2995 RMK A01 T00961017  RH  045%=      5-min Rain = 0
KBR1 141007Z 22002KT 10/M02 A2995 RMK A01 T00961017  RH  045%=      5-min Rain = 0
KBR1 141008Z 15004KT 10/M02 A2995 RMK A01 T00961017  RH  045%=      5-min Rain = 0
KBR1 141009Z 14008KT 09/M02 A2996 RMK A01 T00881015  RH  048%=      5-min Rain = 0
KBR1 141010Z 14007KT 08/M01 A2996 RMK A01 T00781014  RH  052%=      5-min Rain = 0
KBR1 141011Z 15008KT 08/M01 A2996 RMK A01 T00751012  RH  054%=      5-min Rain = 0
KBR1 141012Z 16006KT 07/M01 A2996 RMK A01 T00741011  RH  055%=      5-min Rain = 0
KBR1 141013Z 16006KT 07/M01 A2996 RMK A01 T00731010  RH  056%=      5-min Rain = 0
KBR1 141014Z 16006KT 07/M01 A2996 RMK A01 T00721011  RH  056%=      5-min Rain = 0
KBR1 141015Z 16005KT 07/M01 A2996 RMK A01 T00731010  RH  056%=      5-min Rain = 0
KBR1 141016Z 18003KT 07/M01 A2996 RMK A01 T00731010  RH  056%=      5-min Rain = 0
KBR1 141017Z 19004KT 07/M01 A2996 RMK A01 T00741012  RH  054%=      5-min Rain = 0
KBR1 141018Z 20004KT 08/M02 A2996 RMK A01 T00791015  RH  051%=      5-min Rain = 0
KBR1 141019Z 17003KT 08/M01 A2996 RMK A01 T00821014  RH  051%=      5-min Rain = 0
KBR1 141020Z 17004KT 08/M01 A2996 RMK A01 T00811013  RH  052%=      5-min Rain = 0
KBR1 141021Z 17004KT 08/M01 A2996 RMK A01 T00781012  RH  053%=      5-min Rain = 0
KBR1 141022Z 17003KT 08/M01 A2996 RMK A01 T00751012  RH  054%=      5-min Rain = 0
KBR1 141023Z 19003KT 08/M01 A2996 RMK A01 T00761014  RH  053%=      5-min Rain = 0
KBR1 141024Z 20002KT 08/M01 A2996 RMK A01 T00771013  RH  053%=      5-min Rain = 0
KBR1 141025Z 19003KT 08/M02 A2996 RMK A01 T00771016  RH  052%=      5-min Rain = 0
KBR1 141026Z 20004KT 08/M02 A2996 RMK A01 T00801016  RH  051%=      5-min Rain = 0
KBR1 141027Z 20003KT 08/M02 A2996 RMK A01 T00811016  RH  050%=      5-min Rain = 0
KBR1 141028Z 20003KT 08/M02 A2995 RMK A01 T00811015  RH  051%=      5-min Rain = 0
KBR1 141029Z 20003KT 08/M01 A2995 RMK A01 T00791014  RH  052%=      5-min Rain = 0
KBR1 141030Z 21003KT 08/M01 A2995 RMK A01 T00771014  RH  053%=      5-min Rain = 0
KBR1 141031Z 22003KT 08/M02 A2995 RMK A01 T00761018  RH  051%=      5-min Rain = 0
KBR1 141032Z 22004KT 08/M02 A2996 RMK A01 T00791019  RH  050%=      5-min Rain = 0
KBR1 141033Z 22004KT 08/M02 A2996 RMK A01 T00811018  RH  049%=      5-min Rain = 0
KBR1 141034Z 21003KT 08/M02 A2996 RMK A01 T00831020  RH  048%=      5-min Rain = 0
KBR1 141035Z 20003KT 09/M02 A2995 RMK A01 T00861021  RH  047%=      5-min Rain = 0
KBR1 141036Z 21003KT 09/M02 A2996 RMK A01 T00871021  RH  047%=      5-min Rain = 0
KBR1 141037Z 22002KT 09/M02 A2995 RMK A01 T00871019  RH  047%=      5-min Rain = 0
KBR1 141038Z 21002KT 09/M02 A2995 RMK A01 T00861020  RH  047%=      5-min Rain = 0
KBR1 141039Z 21004KT 09/M02 A2995 RMK A01 T00861022  RH  046%=      5-min Rain = 0
KBR1 141040Z 20004KT 09/M02 A2995 RMK A01 T00891023  RH  045%=      5-min Rain = 0
KBR1 141041Z 20004KT 09/M02 A2995 RMK A01 T00901022  RH  045%=      5-min Rain = 0
KBR1 141042Z 20004KT 09/M02 A2995 RMK A01 T00901020  RH  046%=      5-min Rain = 0
KBR1 141043Z 21003KT 09/M02 A2995 RMK A01 T00871018  RH  047%=      5-min Rain = 0
KBR1 141044Z 20003KT 09/M02 A2995 RMK A01 T00851018  RH  049%=      5-min Rain = 0
KBR1 141045Z 20004KT 08/M02 A2995 RMK A01 T00831019  RH  049%=      5-min Rain = 0
KBR1 141046Z 21004KT 08/M02 A2995 RMK A01 T00811018  RH  050%=      5-min Rain = 0
KBR1 141047Z 22003KT 08/M02 A2996 RMK A01 T00791018  RH  050%=      5-min Rain = 0
KBR1 141048Z 22004KT 08/M02 A2996 RMK A01 T00781019  RH  050%=      5-min Rain = 0
KBR1 141049Z 21004KT 08/M02 A2996 RMK A01 T00791020  RH  050%=      5-min Rain = 0
KBR1 141050Z 19005KT 08/M02 A2996 RMK A01 T00801019  RH  050%=      5-min Rain = 0
KBR1 141051Z 17007KT 08/M02 A2996 RMK A01 T00781015  RH  052%=      5-min Rain = 0
KBR1 141052Z 16007KT 07/M01 A2996 RMK A01 T00731010  RH  055%=      5-min Rain = 0
KBR1 141053Z 17006KT 07/M01 A2996 RMK A01 T00691008  RH  058%=      5-min Rain = 0
KBR1 141054Z 17006KT 07/M01 A2996 RMK A01 T00661007  RH  060%=      5-min Rain = 0
KBR1 141055Z 17007KT 06/M01 A2996 RMK A01 T00641006  RH  061%=      5-min Rain = 0
KBR1 141056Z 17007KT 06/M01 A2996 RMK A01 T00631006  RH  062%=      5-min Rain = 0
KBR1 141057Z 18006KT 06/M01 A2996 RMK A01 T00611005  RH  062%=      5-min Rain = 0
KBR1 141058Z 18005KT 06/M01 A2996 RMK A01 T00611005  RH  063%=      5-min Rain = 0
KBR1 141059Z 18005KT 06/M01 A2996 RMK A01 T00601005  RH  063%=      5-min Rain = 0
KBR1 141100Z 18006KT 06/M01 A2996 RMK A01 T00611005  RH  063%=      5-min Rain = 0
KBR1 141101Z 18006KT 06/M01 A2996 RMK A01 T00611005  RH  063%=      5-min Rain = 0
KBR1 141102Z 18007KT 06/M01 A2996 RMK A01 T00601005  RH  063%=      5-min Rain = 0
KBR1 141103Z 19006KT 06/M01 A2996 RMK A01 T00601005  RH  063%=      5-min Rain = 0
KBR1 141104Z 19006KT 06/M01 A2996 RMK A01 T00591005  RH  064%=      5-min Rain = 0
KBR1 141105Z 19006KT 06/M01 A2996 RMK A01 T00581005  RH  064%=      5-min Rain = 0
KBR1 141106Z 20005KT 06/M01 A2996 RMK A01 T00581005  RH  064%=      5-min Rain = 0
KBR1 141107Z 20005KT 06/M01 A2996 RMK A01 T00581005  RH  064%=      5-min Rain = 0
KBR1 141108Z 20004KT 06/M01 A2996 RMK A01 T00581005  RH  064%=      5-min Rain = 0
KBR1 141109Z 19003KT 06/M01 A2996 RMK A01 T00581005  RH  064%=      5-min Rain = 0
KBR1 141110Z 19003KT 06/M00 A2996 RMK A01 T00571004  RH  065%=      5-min Rain = 0
KBR1 141111Z 20003KT 05/M00 A2996 RMK A01 T00541004  RH  066%=      5-min Rain = 0
KBR1 141112Z 20003KT 05/M01 A2996 RMK A01 T00531005  RH  066%=      5-min Rain = 0
KBR1 141113Z 19003KT 05/M01 A2996 RMK A01 T00531006  RH  066%=      5-min Rain = 0
KBR1 141114Z 19003KT 05/M01 A2996 RMK A01 T00541006  RH  065%=      5-min Rain = 0
KBR1 141115Z 19004KT 05/M01 A2996 RMK A01 T00541006  RH  065%=      5-min Rain = 0
KBR1 141116Z 19004KT 06/M01 A2996 RMK A01 T00551006  RH  065%=      5-min Rain = 0
KBR1 141117Z 19003KT 06/M01 A2996 RMK A01 T00561006  RH  064%=      5-min Rain = 0
KBR1 141118Z 19002KT 06/M01 A2996 RMK A01 T00561007  RH  064%=      5-min Rain = 0
KBR1 141119Z 18002KT 06/M01 A2996 RMK A01 T00551006  RH  065%=      5-min Rain = 0
KBR1 141120Z 18003KT 05/M01 A2996 RMK A01 T00541006  RH  065%=      5-min Rain = 0
KBR1 141121Z 18003KT 05/M01 A2996 RMK A01 T00541006  RH  065%=      5-min Rain = 0
KBR1 141122Z 18004KT 05/M01 A2996 RMK A01 T00531007  RH  065%=      5-min Rain = 0
KBR1 141123Z 18004KT 05/M01 A2996 RMK A01 T00541008  RH  064%=      5-min Rain = 0
KBR1 141124Z 18004KT 06/M01 A2996 RMK A01 T00561007  RH  064%=      5-min Rain = 0
KBR1 141125Z 19004KT 06/M01 A2996 RMK A01 T00561007  RH  064%=      5-min Rain = 0
KBR1 141126Z 19005KT 06/M01 A2996 RMK A01 T00561007  RH  064%=      5-min Rain = 0
KBR1 141127Z 19005KT 06/M01 A2996 RMK A01 T00551008  RH  064%=      5-min Rain = 0
KBR1 141128Z 19005KT 06/M01 A2996 RMK A01 T00551008  RH  064%=      5-min Rain = 0
KBR1 141129Z 20005KT 05/M01 A2996 RMK A01 T00541008  RH  064%=      5-min Rain = 0
KBR1 141130Z 20004KT 05/M01 A2996 RMK A01 T00541008  RH  064%=      5-min Rain = 0
KBR1 141131Z 20005KT 05/M01 A2996 RMK A01 T00541007  RH  065%=      5-min Rain = 0
KBR1 141132Z 20005KT 05/M01 A2996 RMK A01 T00531008  RH  065%=      5-min Rain = 0
KBR1 141133Z 20005KT 06/M01 A2996 RMK A01 T00551008  RH  064%=      5-min Rain = 0
KBR1 141134Z 21005KT 06/M01 A2996 RMK A01 T00551008  RH  064%=      5-min Rain = 0
KBR1 141135Z 21004KT 06/M01 A2996 RMK A01 T00571009  RH  063%=      5-min Rain = 0
KBR1 141136Z 20005KT 06/M01 A2996 RMK A01 T00581009  RH  062%=      5-min Rain = 0
KBR1 141137Z 20005KT 06/M01 A2996 RMK A01 T00591011  RH  061%=      5-min Rain = 0
KBR1 141138Z 20004KT 06/M01 A2996 RMK A01 T00601011  RH  060%=      5-min Rain = 0
KBR1 141139Z 20005KT 06/M01 A2996 RMK A01 T00611011  RH  060%=      5-min Rain = 0
KBR1 141140Z 20005KT 06/M01 A2996 RMK A01 T00611011  RH  060%=      5-min Rain = 0
KBR1 141141Z 20005KT 06/M01 A2997 RMK A01 T00611011  RH  060%=      5-min Rain = 0
KBR1 141142Z 19005KT 06/M01 A2997 RMK A01 T00591010  RH  061%=      5-min Rain = 0
KBR1 141143Z 19005KT 06/M01 A2997 RMK A01 T00571011  RH  062%=      5-min Rain = 0
KBR1 141144Z 19005KT 06/M01 A2997 RMK A01 T00571011  RH  062%=      5-min Rain = 0
KBR1 141145Z 19005KT 06/M01 A2997 RMK A01 T00581011  RH  061%=      5-min Rain = 0
KBR1 141146Z 20005KT 06/M01 A2997 RMK A01 T00581009  RH  062%=      5-min Rain = 0
KBR1 141147Z 20005KT 06/M01 A2997 RMK A01 T00561009  RH  063%=      5-min Rain = 0
KBR1 141148Z 20004KT 06/M01 A2997 RMK A01 T00551010  RH  063%=      5-min Rain = 0
KBR1 141149Z 20004KT 06/M01 A2997 RMK A01 T00561011  RH  062%=      5-min Rain = 0
KBR1 141150Z 20004KT 06/M01 A2997 RMK A01 T00581011  RH  061%=      5-min Rain = 0
KBR1 141151Z 19004KT 06/M01 A2997 RMK A01 T00591011  RH  061%=      5-min Rain = 0
KBR1 141152Z 19005KT 06/M01 A2997 RMK A01 T00591009  RH  061%=      5-min Rain = 0
KBR1 141153Z 19005KT 06/M01 A2997 RMK A01 T00581011  RH  061%=      5-min Rain = 0
KBR1 141154Z 19005KT 06/M01 A2997 RMK A01 T00581012  RH  061%=      5-min Rain = 0
KBR1 141155Z 19005KT 06/M01 A2997 RMK A01 T00591014  RH  059%=      5-min Rain = 0
KBR1 141156Z 20005KT 06/M01 A2997 RMK A01 T00611014  RH  058%=      5-min Rain = 0
KBR1 141157Z 20005KT 06/M02 A2997 RMK A01 T00641016  RH  056%=      5-min Rain = 0
KBR1 141158Z 20005KT 07/M02 A2997 RMK A01 T00691017  RH  054%=      5-min Rain = 0
KBR1 141159Z 20005KT 07/M02 A2997 RMK A01 T00721018  RH  053%=      5-min Rain = 0
KBR1 141200Z 20005KT 07/M02 A2997 RMK A01 T00731018  RH  052%=      5-min Rain = 0
KBR1 141201Z 19005KT 07/M02 A2997 RMK A01 T00741019  RH  052%=      5-min Rain = 0
KBR1 141202Z 19006KT 08/M02 A2997 RMK A01 T00751019  RH  051%=      5-min Rain = 0
KBR1 141203Z 20006KT 07/M02 A2997 RMK A01 T00741016  RH  053%=      5-min Rain = 0
KBR1 141204Z 20005KT 07/M02 A2997 RMK A01 T00721016  RH  054%=      5-min Rain = 0
KBR1 141205Z 20005KT 07/M02 A2997 RMK A01 T00721016  RH  054%=      5-min Rain = 0
KBR1 141206Z 20006KT 07/M02 A2997 RMK A01 T00711015  RH  054%=      5-min Rain = 0
KBR1 141207Z 20006KT 07/M02 A2997 RMK A01 T00711016  RH  054%=      5-min Rain = 0
KBR1 141208Z 20006KT 07/M02 A2997 RMK A01 T00711016  RH  054%=      5-min Rain = 0
KBR1 141209Z 21006KT 07/M02 A2997 RMK A01 T00711018  RH  053%=      5-min Rain = 0
KBR1 141210Z 20006KT 07/M02 A2997 RMK A01 T00721018  RH  053%=      5-min Rain = 0
KBR1 141211Z 21006KT 07/M02 A2997 RMK A01 T00721018  RH  053%=      5-min Rain = 0
KBR1 141212Z 20006KT 07/M02 A2997 RMK A01 T00731018  RH  052%=      5-min Rain = 0
KBR1 141213Z 21006KT 07/M02 A2997 RMK A01 T00721018  RH  053%=      5-min Rain = 0
KBR1 141214Z 21006KT 07/M02 A2997 RMK A01 T00711018  RH  053%=      5-min Rain = 0
KBR1 141215Z 20006KT 07/M02 A2997 RMK A01 T00691018  RH  054%=      5-min Rain = 0
KBR1 141216Z 21006KT 07/M02 A2997 RMK A01 T00681017  RH  055%=      5-min Rain = 0
KBR1 141217Z 21006KT 07/M02 A2998 RMK A01 T00661018  RH  055%=      5-min Rain = 0
KBR1 141218Z 20006KT 07/M02 A2998 RMK A01 T00651018  RH  056%=      5-min Rain = 0
KBR1 141219Z 20005KT 07/M02 A2998 RMK A01 T00651019  RH  055%=      5-min Rain = 0
KBR1 141220Z 20006KT 07/M02 A2998 RMK A01 T00651019  RH  055%=      5-min Rain = 0
KBR1 141221Z 20006KT 06/M02 A2998 RMK A01 T00641018  RH  056%=      5-min Rain = 0
KBR1 141222Z 20006KT 06/M02 A2998 RMK A01 T00631018  RH  056%=      5-min Rain = 0
KBR1 141223Z 20006KT 06/M02 A2998 RMK A01 T00611017  RH  057%=      5-min Rain = 0
KBR1 141224Z 20006KT 06/M02 A2998 RMK A01 T00591017  RH  058%=      5-min Rain = 0
KBR1 141225Z 20006KT 06/M02 A2998 RMK A01 T00581018  RH  058%=      5-min Rain = 0
KBR1 141226Z 20006KT 06/M02 A2998 RMK A01 T00601019  RH  057%=      5-min Rain = 0
KBR1 141227Z 20007KT 06/M02 A2998 RMK A01 T00611019  RH  056%=      5-min Rain = 0
KBR1 141228Z 20007KT 06/M02 A2998 RMK A01 T00631020  RH  055%=      5-min Rain = 0
KBR1 141229Z 20007KT 06/M02 A2998 RMK A01 T00641020  RH  055%=      5-min Rain = 0
KBR1 141230Z 19006KT 06/M02 A2998 RMK A01 T00641019  RH  055%=      5-min Rain = 0
KBR1 141231Z 19006KT 06/M02 A2998 RMK A01 T00631019  RH  056%=      5-min Rain = 0
KBR1 141232Z 19007KT 06/M02 A2998 RMK A01 T00611019  RH  057%=      5-min Rain = 0
KBR1 141233Z 19006KT 06/M02 A2998 RMK A01 T00611019  RH  056%=      5-min Rain = 0
KBR1 141234Z 19007KT 06/M02 A2998 RMK A01 T00611018  RH  057%=      5-min Rain = 0
KBR1 141235Z 19006KT 06/M02 A2998 RMK A01 T00611018  RH  057%=      5-min Rain = 0
KBR1 141236Z 19006KT 06/M02 A2998 RMK A01 T00621018  RH  057%=      5-min Rain = 0
KBR1 141237Z 19006KT 06/M02 A2998 RMK A01 T00611018  RH  057%=      5-min Rain = 0
KBR1 141238Z 20006KT 06/M02 A2998 RMK A01 T00611018  RH  057%=      5-min Rain = 0
KBR1 141239Z 20006KT 06/M02 A2999 RMK A01 T00611017  RH  057%=      5-min Rain = 0
KBR1 141240Z 19005KT 06/M02 A2999 RMK A01 T00601016  RH  058%=      5-min Rain = 0
KBR1 141241Z 20006KT 06/M02 A2999 RMK A01 T00581017  RH  059%=      5-min Rain = 0
KBR1 141242Z 20006KT 06/M02 A2999 RMK A01 T00571016  RH  059%=      5-min Rain = 0
KBR1 141243Z 20006KT 06/M02 A2999 RMK A01 T00561015  RH  060%=      5-min Rain = 0
KBR1 141244Z 20006KT 05/M02 A2999 RMK A01 T00541016  RH  061%=      5-min Rain = 0
KBR1 141245Z 20006KT 05/M02 A2999 RMK A01 T00541015  RH  061%=      5-min Rain = 0
KBR1 141246Z 20007KT 05/M02 A2999 RMK A01 T00531015  RH  062%=      5-min Rain = 0
KBR1 141247Z 20006KT 05/M01 A2999 RMK A01 T00521014  RH  062%=      5-min Rain = 0
KBR1 141248Z 20006KT 05/M01 A2999 RMK A01 T00511014  RH  063%=      5-min Rain = 0
KBR1 141249Z 21005KT 05/M02 A2999 RMK A01 T00511015  RH  063%=      5-min Rain = 0
KBR1 141250Z 20005KT 05/M02 A2999 RMK A01 T00511016  RH  062%=      5-min Rain = 0
KBR1 141251Z 21005KT 05/M02 A2999 RMK A01 T00521016  RH  062%=      5-min Rain = 0
KBR1 141252Z 21005KT 05/M02 A2999 RMK A01 T00531016  RH  061%=      5-min Rain = 0
KBR1 141253Z 21005KT 05/M02 A2999 RMK A01 T00531016  RH  061%=      5-min Rain = 0
KBR1 141254Z 21005KT 05/M02 A2999 RMK A01 T00541016  RH  061%=      5-min Rain = 0
KBR1 141255Z 21005KT 05/M02 A2999 RMK A01 T00541016  RH  061%=      5-min Rain = 0
KBR1 141256Z 22005KT 05/M02 A2999 RMK A01 T00541016  RH  061%=      5-min Rain = 0
KBR1 141257Z 22005KT 05/M02 A2999 RMK A01 T00541015  RH  061%=      5-min Rain = 0
KBR1 141258Z 22005KT 05/M02 A2999 RMK A01 T00541016  RH  061%=      5-min Rain = 0
KBR1 141259Z 22004KT 05/M02 A2999 RMK A01 T00541016  RH  061%=      5-min Rain = 0
KBR1 141300Z 22004KT 05/M02 A2999 RMK A01 T00541016  RH  061%=      5-min Rain = 0
KBR1 141301Z 22004KT 05/M02 A2999 RMK A01 T00541015  RH  061%=      5-min Rain = 0
KBR1 141302Z 22004KT 05/M02 A2999 RMK A01 T00541016  RH  061%=      5-min Rain = 0
KBR1 141303Z 22004KT 05/M02 A2999 RMK A01 T00541016  RH  061%=      5-min Rain = 0
KBR1 141304Z 22004KT 06/M02 A2999 RMK A01 T00551016  RH  061%=      5-min Rain = 0
KBR1 141305Z 23003KT 06/M02 A2999 RMK A01 T00551015  RH  061%=      5-min Rain = 0
KBR1 141306Z 23003KT 06/M02 A2999 RMK A01 T00551016  RH  060%=      5-min Rain = 0
KBR1 141307Z 22004KT 06/M02 A2999 RMK A01 T00551015  RH  060%=      5-min Rain = 0
KBR1 141308Z 22004KT 06/M02 A2999 RMK A01 T00551015  RH  060%=      5-min Rain = 0
KBR1 141309Z 22004KT 06/M02 A2999 RMK A01 T00551016  RH  060%=      5-min Rain = 0
KBR1 141310Z 22004KT 06/M02 A2999 RMK A01 T00561015  RH  060%=      5-min Rain = 0
KBR1 141311Z 22005KT 06/M02 A2999 RMK A01 T00561015  RH  060%=      5-min Rain = 0
KBR1 141312Z 22005KT 06/M02 A2999 RMK A01 T00561015  RH  060%=      5-min Rain = 0
KBR1 141313Z 22006KT 06/M02 A2999 RMK A01 T00561015  RH  060%=      5-min Rain = 0
KBR1 141314Z 22005KT 06/M02 A2999 RMK A01 T00571016  RH  059%=      5-min Rain = 0
KBR1 141315Z 22005KT 06/M02 A2999 RMK A01 T00581016  RH  059%=      5-min Rain = 0
KBR1 141316Z 22005KT 06/M02 A2999 RMK A01 T00591016  RH  058%=      5-min Rain = 0
KBR1 141317Z 23005KT 06/M02 A2999 RMK A01 T00601016  RH  058%=      5-min Rain = 0
KBR1 141318Z 23005KT 06/M02 A2999 RMK A01 T00611017  RH  057%=      5-min Rain = 0
KBR1 141319Z 22005KT 06/M02 A2999 RMK A01 T00621018  RH  056%=      5-min Rain = 0
KBR1 141320Z 22005KT 06/M02 A2999 RMK A01 T00631019  RH  056%=      5-min Rain = 0
KBR1 141321Z 22005KT 06/M02 A2999 RMK A01 T00641018  RH  056%=      5-min Rain = 0
KBR1 141322Z 22005KT 07/M02 A2999 RMK A01 T00651018  RH  055%=      5-min Rain = 0
KBR1 141323Z 22005KT 07/M02 A2999 RMK A01 T00651017  RH  056%=      5-min Rain = 0
KBR1 141324Z 22005KT 07/M02 A2999 RMK A01 T00651017  RH  056%=      5-min Rain = 0
KBR1 141325Z 22005KT 07/M02 A2999 RMK A01 T00661017  RH  056%=      5-min Rain = 0
KBR1 141326Z 22005KT 07/M02 A2999 RMK A01 T00671016  RH  056%=      5-min Rain = 0
KBR1 141327Z 22005KT 07/M01 A2999 RMK A01 T00681014  RH  056%=      5-min Rain = 0
KBR1 141328Z 22005KT 07/M01 A2999 RMK A01 T00681014  RH  056%=      5-min Rain = 0
KBR1 141329Z 23005KT 07/M01 A2999 RMK A01 T00691014  RH  056%=      5-min Rain = 0
KBR1 141330Z 23004KT 07/M01 A2999 RMK A01 T00691013  RH  056%=      5-min Rain = 0
KBR1 141331Z 23005KT 07/M01 A2999 RMK A01 T00701013  RH  056%=      5-min Rain = 0
KBR1 141332Z 23004KT 07/M01 A2999 RMK A01 T00701011  RH  056%=      5-min Rain = 0
KBR1 141333Z 23004KT 07/M01 A2999 RMK A01 T00701010  RH  057%=      5-min Rain = 0
KBR1 141334Z 23004KT 07/M01 A2999 RMK A01 T00701010  RH  056%=      5-min Rain = 0
KBR1 141335Z 24004KT 07/M01 A2999 RMK A01 T00711011  RH  056%=      5-min Rain = 0
KBR1 141336Z 24004KT 07/M01 A2999 RMK A01 T00721011  RH  056%=      5-min Rain = 0
KBR1 141337Z 24004KT 07/M01 A2999 RMK A01 T00731010  RH  056%=      5-min Rain = 0
KBR1 141338Z 25004KT 07/M01 A2999 RMK A01 T00741011  RH  055%=      5-min Rain = 0
KBR1 141339Z 25003KT 08/M01 A2999 RMK A01 T00751011  RH  054%=      5-min Rain = 0
KBR1 141340Z 25003KT 08/M01 A2999 RMK A01 T00771008  RH  055%=      5-min Rain = 0
KBR1 141341Z 25003KT 08/M01 A2999 RMK A01 T00781008  RH  054%=      5-min Rain = 0
KBR1 141342Z 25003KT 08/M01 A2999 RMK A01 T00801008  RH  054%=      5-min Rain = 0
KBR1 141343Z 25003KT 08/M01 A2999 RMK A01 T00811007  RH  054%=      5-min Rain = 0
KBR1 141344Z 25003KT 08/M01 A2999 RMK A01 T00821009  RH  053%=      5-min Rain = 0
KBR1 141345Z 25004KT 08/M01 A2999 RMK A01 T00831009  RH  052%=      5-min Rain = 0
KBR1 141346Z 25004KT 08/M01 A2999 RMK A01 T00841010  RH  051%=      5-min Rain = 0
KBR1 141347Z 25004KT 09/M01 A2999 RMK A01 T00861010  RH  051%=      5-min Rain = 0
KBR1 141348Z 25005KT 09/M01 A2999 RMK A01 T00881010  RH  050%=      5-min Rain = 0
KBR1 141349Z 24005KT 09/M01 A2999 RMK A01 T00891009  RH  050%=      5-min Rain = 0
KBR1 141350Z 24005KT 09/M01 A2999 RMK A01 T00921007  RH  050%=      5-min Rain = 0
KBR1 141351Z 25005KT 09/M01 A2999 RMK A01 T00931007  RH  049%=      5-min Rain = 0
KBR1 141352Z 24005KT 09/M01 A2999 RMK A01 T00931009  RH  049%=      5-min Rain = 0
KBR1 141353Z 25004KT 09/M01 A2999 RMK A01 T00931011  RH  048%=      5-min Rain = 0
KBR1 141354Z 25004KT 09/M01 A2999 RMK A01 T00941007  RH  049%=      5-min Rain = 0
KBR1 141355Z 25005KT 09/M01 A2999 RMK A01 T00941006  RH  050%=      5-min Rain = 0
KBR1 141356Z 25004KT 10/M01 A30 RMK A01 T00961006  RH  049%=      5-min Rain = 0
KBR1 141357Z 25005KT 10/M01 A30 RMK A01 T00991010  RH  047%=      5-min Rain = 0
KBR1 141358Z 25004KT 10/M01 A30 RMK A01 T01021010  RH  046%=      5-min Rain = 0
KBR1 141359Z 25005KT 11/M01 A30 RMK A01 T01051011  RH  044%=      5-min Rain = 0
KBR1 141400Z 25006KT 11/M01 A30 RMK A01 T01071012  RH  044%=      5-min Rain = 0
KBR1 141401Z 25006KT 11/M01 A30 RMK A01 T01091014  RH  042%=      5-min Rain = 0
KBR1 141402Z 25005KT 11/M02 A30 RMK A01 T01111017  RH  041%=      5-min Rain = 0
KBR1 141403Z 25006KT 11/M02 A30 RMK A01 T01141016  RH  040%=      5-min Rain = 0
KBR1 141404Z 25005KT 12/M02 A30 RMK A01 T01171016  RH  040%=      5-min Rain = 0
KBR1 141405Z 25004KT 12/M02 A30 RMK A01 T01191015  RH  040%=      5-min Rain = 0
KBR1 141406Z 25004KT 12/M01 A30 RMK A01 T01201012  RH  040%=      5-min Rain = 0
KBR1 141407Z 25003KT 12/M01 A30 RMK A01 T01211013  RH  040%=      5-min Rain = 0
KBR1 141408Z 25004KT 12/M01 A30 RMK A01 T01221013  RH  039%=      5-min Rain = 0
KBR1 141409Z 25004KT 12/M02 A30 RMK A01 T01241017  RH  038%=      5-min Rain = 0
KBR1 141410Z 24003KT 13/M02 A30 RMK A01 T01251015  RH  038%=      5-min Rain = 0
KBR1 141411Z 25003KT 13/M01 A30 RMK A01 T01261011  RH  039%=      5-min Rain = 0
KBR1 141412Z 25003KT 13/M01 A30 RMK A01 T01261012  RH  038%=      5-min Rain = 0
KBR1 141413Z 25004KT 13/M01 A30 RMK A01 T01271011  RH  038%=      5-min Rain = 0
KBR1 141414Z 26003KT 13/M01 A30 RMK A01 T01291012  RH  038%=      5-min Rain = 0
KBR1 141415Z 25004KT 13/M01 A30 RMK A01 T01301008  RH  038%=      5-min Rain = 0
KBR1 141416Z 26004KT 13/M01 A30 RMK A01 T01321013  RH  037%=      5-min Rain = 0
KBR1 141417Z 25004KT 13/M01 A30 RMK A01 T01331012  RH  037%=      5-min Rain = 0
KBR1 141418Z 26004KT 14/M01 A30 RMK A01 T01351012  RH  036%=      5-min Rain = 0
KBR1 141419Z 26005KT 14/M01 A30 RMK A01 T01371009  RH  036%=      5-min Rain = 0
KBR1 141420Z 26004KT 14/M01 A30 RMK A01 T01381009  RH  036%=      5-min Rain = 0
KBR1 141421Z 26005KT 14/M01 A30 RMK A01 T01401010  RH  035%=      5-min Rain = 0
KBR1 141422Z 26005KT 14/M01 A30 RMK A01 T01421014  RH  034%=      5-min Rain = 0
KBR1 141423Z 26005KT 14/M01 A30 RMK A01 T01431014  RH  034%=      5-min Rain = 0
KBR1 141424Z 27005KT 14/M01 A30 RMK A01 T01441014  RH  034%=      5-min Rain = 0
KBR1 141425Z 27004KT 15/M02 A30 RMK A01 T01451015  RH  033%=      5-min Rain = 0
KBR1 141426Z 27005KT 15/M02 A30 RMK A01 T01471015  RH  033%=      5-min Rain = 0
KBR1 141427Z 27005KT 15/M02 A30 RMK A01 T01481015  RH  033%=      5-min Rain = 0
KBR1 141428Z 27005KT 15/M02 A30 RMK A01 T01501015  RH  032%=      5-min Rain = 0
KBR1 141429Z 26004KT 15/M01 A30 RMK A01 T01511011  RH  033%=      5-min Rain = 0
KBR1 141430Z 26004KT 15/M01 A30 RMK A01 T01521010  RH  033%=      5-min Rain = 0
KBR1 141431Z 26003KT 15/M01 A30 RMK A01 T01531011  RH  032%=      5-min Rain = 0
KBR1 141432Z 27005KT 15/M01 A30 RMK A01 T01531011  RH  032%=      5-min Rain = 0
KBR1 141433Z 26005KT 16/M01 A30 RMK A01 T01551014  RH  031%=      5-min Rain = 0
KBR1 141434Z 26004KT 16/M01 A30 RMK A01 T01561013  RH  031%=      5-min Rain = 0
KBR1 141435Z 27003KT 16/M01 A30 RMK A01 T01571012  RH  031%=      5-min Rain = 0
KBR1 141436Z 28005KT 16/M01 A30 RMK A01 T01581013  RH  031%=      5-min Rain = 0
KBR1 141437Z 24004KT 16/M01 A30 RMK A01 T01581012  RH  031%=      5-min Rain = 0
KBR1 141438Z 25003KT 16/M01 A30 RMK A01 T01591009  RH  032%=      5-min Rain = 0
KBR1 141439Z 26006KT 16/M01 A30 RMK A01 T01591006  RH  032%=      5-min Rain = 0
KBR1 141440Z 26008KT 16/M01 A30 RMK A01 T01621008  RH  031%=      5-min Rain = 0
KBR1 141441Z 26008KT 17/M01 A30 RMK A01 T01651010  RH  030%=      5-min Rain = 0
KBR1 141442Z 25009KT 17/M01 A30 RMK A01 T01671008  RH  030%=      5-min Rain = 0
KBR1 141443Z 25009KT 17/M01 A30 RMK A01 T01681011  RH  029%=      5-min Rain = 0
KBR1 141444Z 25011KT 17/M01 A30 RMK A01 T01691009  RH  030%=      5-min Rain = 0
KBR1 141445Z 25011KT 17/M01 A30 RMK A01 T01701009  RH  029%=      5-min Rain = 0
KBR1 141446Z 25011KT 17/M01 A30 RMK A01 T01711010  RH  029%=      5-min Rain = 0
KBR1 141447Z 26010KT 17/M01 A30 RMK A01 T01721008  RH  030%=      5-min Rain = 0
KBR1 141448Z 26012KT 17/M01 A30 RMK A01 T01731007  RH  029%=      5-min Rain = 0
KBR1 141449Z 26012KT 17/M01 A30 RMK A01 T01731007  RH  029%=      5-min Rain = 0
KBR1 141450Z 26013KT 17/M01 A30 RMK A01 T01741007  RH  029%=      5-min Rain = 0
KBR1 141451Z 26012KT 17/M01 A30 RMK A01 T01741007  RH  029%=      5-min Rain = 0
KBR1 141452Z 26012KT 17/M01 A30 RMK A01 T01741006  RH  029%=      5-min Rain = 0
KBR1 141453Z 26011KT 17/M01 A30 RMK A01 T01741006  RH  029%=      5-min Rain = 0
KBR1 141454Z 26010KT 18/M01 A30 RMK A01 T01751005  RH  029%=      5-min Rain = 0
KBR1 141455Z 25012KT 18/M00 A30 RMK A01 T01761004  RH  030%=      5-min Rain = 0
KBR1 141456Z 25011KT 18/M00 A30 RMK A01 T01771004  RH  029%=      5-min Rain = 0
KBR1 141457Z 25011KT 18/M00 A30 RMK A01 T01771003  RH  029%=      5-min Rain = 0
KBR1 141458Z 25011KT 18/M00 A30 RMK A01 T01781001  RH  030%=      5-min Rain = 0
KBR1 141459Z 25013KT 18/M00 A30 RMK A01 T01801001  RH  029%=      5-min Rain = 0
KBR1 141500Z 26013KT 18/M00 A30 RMK A01 T01801002  RH  029%=      5-min Rain = 0
KBR1 141501Z 25013KT 18/M00 A30 RMK A01 T01801003  RH  029%=      5-min Rain = 0
KBR1 141502Z 26013KT 18/M00 A30 RMK A01 T01801004  RH  029%=      5-min Rain = 0
KBR1 141503Z 26013KT 18/M00 A30 RMK A01 T01801003  RH  029%=      5-min Rain = 0
KBR1 141504Z 25011KT 18/M00 A30 RMK A01 T01811003  RH  029%=      5-min Rain = 0
KBR1 141505Z 26010KT 18/M00 A30 RMK A01 T01831001  RH  029%=      5-min Rain = 0
KBR1 141506Z 26011KT 18/00 A30 RMK A01 T018400-0  RH  029%=      5-min Rain = 0
KBR1 141507Z 25012KT 19/M00 A30 RMK A01 T01851003  RH  028%=      5-min Rain = 0
KBR1 141508Z 25012KT 18/M00 A30 RMK A01 T01841003  RH  028%=      5-min Rain = 0
KBR1 141509Z 26011KT 19/M00 A30 RMK A01 T01851001  RH  029%=      5-min Rain = 0
KBR1 141510Z 26011KT 19/M00 A30 RMK A01 T01851002  RH  028%=      5-min Rain = 0
KBR1 141511Z 25012KT 19/M00 A30 RMK A01 T01851003  RH  028%=      5-min Rain = 0
KBR1 141512Z 25012KT 19/M01 A30 RMK A01 T01851005  RH  028%=      5-min Rain = 0
KBR1 141513Z 24011KT 19/M00 A30 RMK A01 T01851003  RH  028%=      5-min Rain = 0
KBR1 141514Z 24011KT 19/M00 A30 RMK A01 T01861001  RH  028%=      5-min Rain = 0
KBR1 141515Z 24011KT 19/M00 A30 RMK A01 T01871002  RH  028%=      5-min Rain = 0
KBR1 141516Z 24013KT 19/M00 A3001 RMK A01 T01871002  RH  028%=      5-min Rain = 0
KBR1 141517Z 24012KT 19/M00 A3001 RMK A01 T01861003  RH  028%=      5-min Rain = 0
KBR1 141518Z 24010KT 19/M00 A3001 RMK A01 T01861003  RH  028%=      5-min Rain = 0
KBR1 141519Z 24011KT 19/M00 A3001 RMK A01 T01861001  RH  028%=      5-min Rain = 0
KBR1 141520Z 25011KT 19/M00 A30 RMK A01 T01871002  RH  028%=      5-min Rain = 0
KBR1 141521Z 25011KT 19/00 A30 RMK A01 T01860000  RH  029%=      5-min Rain = 0
KBR1 141522Z 25012KT 19/00 A30 RMK A01 T018700-0  RH  028%=      5-min Rain = 0
KBR1 141523Z 24010KT 19/M00 A30 RMK A01 T01861001  RH  028%=      5-min Rain = 0
KBR1 141524Z 23011KT 19/00 A30 RMK A01 T01860000  RH  029%=      5-min Rain = 0
KBR1 141525Z 24011KT 19/00 A30 RMK A01 T01860001  RH  029%=      5-min Rain = 0
KBR1 141526Z 23012KT 19/00 A30 RMK A01 T01870003  RH  029%=      5-min Rain = 0
KBR1 141527Z 23011KT 19/00 A30 RMK A01 T01880003  RH  029%=      5-min Rain = 0
KBR1 141528Z 23012KT 19/01 A30 RMK A01 T01900006  RH  029%=      5-min Rain = 0
KBR1 141529Z 23012KT 19/01 A30 RMK A01 T01900005  RH  029%=      5-min Rain = 0
KBR1 141530Z 24012KT 19/01 A30 RMK A01 T01900005  RH  029%=      5-min Rain = 0
KBR1 141531Z 24011KT 19/01 A30 RMK A01 T01900005  RH  029%=      5-min Rain = 0
KBR1 141532Z 23012KT 19/01 A30 RMK A01 T01900007  RH  029%=      5-min Rain = 0
KBR1 141533Z 22012KT 19/01 A30 RMK A01 T01910006  RH  029%=      5-min Rain = 0
KBR1 141534Z 22011KT 19/01 A30 RMK A01 T01910008  RH  029%=      5-min Rain = 0
KBR1 141535Z 22011KT 19/01 A30 RMK A01 T01920008  RH  029%=      5-min Rain = 0
KBR1 141536Z 22013KT 19/01 A30 RMK A01 T01940008  RH  029%=      5-min Rain = 0
KBR1 141537Z 23012KT 19/01 A30 RMK A01 T01940006  RH  028%=      5-min Rain = 0
KBR1 141538Z 24012KT 19/01 A30 RMK A01 T01930005  RH  028%=      5-min Rain = 0
KBR1 141539Z 24011KT 19/00 A30 RMK A01 T01930004  RH  028%=      5-min Rain = 0
KBR1 141540Z 24012KT 19/00 A30 RMK A01 T01920002  RH  028%=      5-min Rain = 0
KBR1 141541Z 24010KT 19/00 A30 RMK A01 T01920002  RH  028%=      5-min Rain = 0
KBR1 141542Z 24011KT 19/00 A30 RMK A01 T01920004  RH  028%=      5-min Rain = 0
KBR1 141543Z 24010KT 19/01 A30 RMK A01 T01940006  RH  028%=      5-min Rain = 0
KBR1 141544Z 24010KT 20/00 A30 RMK A01 T01950004  RH  028%=      5-min Rain = 0
KBR1 141545Z 23010KT 20/00 A30 RMK A01 T01950004  RH  028%=      5-min Rain = 0
KBR1 141546Z 22010KT 20/00 A30 RMK A01 T01960004  RH  028%=      5-min Rain = 0
KBR1 141547Z 22010KT 20/01 A30 RMK A01 T01960005  RH  028%=      5-min Rain = 0
KBR1 141548Z 23010KT 20/00 A30 RMK A01 T01970004  RH  027%=      5-min Rain = 0
KBR1 141549Z 24008KT 20/01 A30 RMK A01 T01970007  RH  028%=      5-min Rain = 0
KBR1 141550Z 24007KT 20/00 A30 RMK A01 T01980003  RH  027%=      5-min Rain = 0
KBR1 141551Z 25009KT 20/01 A30 RMK A01 T01970007  RH  028%=      5-min Rain = 0
KBR1 141552Z 24009KT 20/01 A30 RMK A01 T02000011  RH  028%=      5-min Rain = 0
KBR1 141553Z 23009KT 20/01 A30 RMK A01 T02020008  RH  027%=      5-min Rain = 0
KBR1 141554Z 24009KT 20/01 A30 RMK A01 T02010007  RH  027%=      5-min Rain = 0
KBR1 141555Z 22008KT 20/01 A30 RMK A01 T02000006  RH  027%=      5-min Rain = 0
KBR1 141556Z 22008KT 20/01 A30 RMK A01 T02000011  RH  028%=      5-min Rain = 0
KBR1 141557Z 21012KT 20/01 A30 RMK A01 T02020011  RH  028%=      5-min Rain = 0
KBR1 141558Z 22011KT 20/01 A30 RMK A01 T02030009  RH  027%=      5-min Rain = 0
KBR1 141559Z 23009KT 20/01 A30 RMK A01 T02020008  RH  027%=      5-min Rain = 0
KBR1 141600Z 23010KT 20/01 A30 RMK A01 T02020010  RH  028%=      5-min Rain = 0
KBR1 141601Z 23009KT 20/01 A30 RMK A01 T02020008  RH  027%=      5-min Rain = 0
KBR1 141602Z 23010KT 20/01 A30 RMK A01 T02010011  RH  028%=      5-min Rain = 0
KBR1 141603Z 24010KT 20/01 A30 RMK A01 T02040012  RH  028%=      5-min Rain = 0
KBR1 141604Z 25008KT 20/01 A30 RMK A01 T02040009  RH  027%=      5-min Rain = 0
KBR1 141605Z 24010KT 20/01 A30 RMK A01 T02040011  RH  028%=      5-min Rain = 0
KBR1 141606Z 24009KT 21/01 A30 RMK A01 T02060013  RH  028%=      5-min Rain = 0
KBR1 141607Z 23008KT 21/01 A30 RMK A01 T02070009  RH  027%=      5-min Rain = 0
KBR1 141608Z 22011KT 21/01 A30 RMK A01 T02060009  RH  027%=      5-min Rain = 0
KBR1 141609Z 21009KT 21/01 A30 RMK A01 T02060007  RH  026%=      5-min Rain = 0
KBR1 141610Z 21011KT 21/01 A30 RMK A01 T02060010  RH  027%=      5-min Rain = 0
KBR1 141611Z 22011KT 21/01 A30 RMK A01 T02080010  RH  027%=      5-min Rain = 0
KBR1 141612Z 23009KT 21/01 A30 RMK A01 T02080009  RH  026%=      5-min Rain = 0
KBR1 141613Z 24009KT 21/01 A30 RMK A01 T02080010  RH  027%=      5-min Rain = 0
KBR1 141614Z 24010KT 21/01 A30 RMK A01 T02080010  RH  027%=      5-min Rain = 0
KBR1 141615Z 24009KT 21/01 A30 RMK A01 T02080010  RH  027%=      5-min Rain = 0
KBR1 141616Z 23009G14KT 21/01 A30 RMK A01 T02080009  RH  027%=      5-min Rain = 0
KBR1 141617Z 23011KT 21/01 A30 RMK A01 T02080011  RH  027%=      5-min Rain = 0
KBR1 141618Z 23011KT 21/01 A30 RMK A01 T02090012  RH  027%=      5-min Rain = 0
KBR1 141619Z 23009KT 21/01 A30 RMK A01 T02110012  RH  027%=      5-min Rain = 0
KBR1 141620Z 23009KT 21/01 A30 RMK A01 T02110013  RH  027%=      5-min Rain = 0
KBR1 141621Z 23010KT 21/01 A30 RMK A01 T02120012  RH  027%=      5-min Rain = 0
KBR1 141622Z 24008KT 21/01 A30 RMK A01 T02110012  RH  027%=      5-min Rain = 0
KBR1 141623Z 22010KT 21/02 A30 RMK A01 T02110017  RH  028%=      5-min Rain = 0
KBR1 141624Z 23009KT 21/02 A30 RMK A01 T02130015  RH  027%=      5-min Rain = 0
KBR1 141625Z 22009KT 21/02 A30 RMK A01 T02130015  RH  027%=      5-min Rain = 0
KBR1 141626Z 22008KT 21/01 A2999 RMK A01 T02140014  RH  027%=      5-min Rain = 0
KBR1 141627Z 23008KT 21/01 A2999 RMK A01 T02130014  RH  027%=      5-min Rain = 0
KBR1 141628Z 21010KT 21/02 A2999 RMK A01 T02130015  RH  027%=      5-min Rain = 0
KBR1 141629Z 22010KT 21/01 A2999 RMK A01 T02130012  RH  026%=      5-min Rain = 0
KBR1 141630Z 22011KT 21/01 A2999 RMK A01 T02140013  RH  026%=      5-min Rain = 0
KBR1 141631Z 23009KT 21/01 A2999 RMK A01 T02140012  RH  026%=      5-min Rain = 0
KBR1 141632Z 23009KT 21/01 A2999 RMK A01 T02140012  RH  026%=      5-min Rain = 0
KBR1 141633Z 23010G15KT 21/01 A2999 RMK A01 T02140013  RH  026%=      5-min Rain = 0
KBR1 141634Z 23010KT 22/01 A2999 RMK A01 T02150012  RH  026%=      5-min Rain = 0
KBR1 141635Z 23011KT 22/01 A2999 RMK A01 T02150011  RH  026%=      5-min Rain = 0
KBR1 141636Z 23013KT 22/01 A2999 RMK A01 T02150012  RH  026%=      5-min Rain = 0
KBR1 141637Z 23011KT 22/01 A2999 RMK A01 T02170011  RH  026%=      5-min Rain = 0
KBR1 141638Z 25011KT 22/01 A2999 RMK A01 T02170011  RH  025%=      5-min Rain = 0
KBR1 141639Z 23010KT 22/02 A2999 RMK A01 T02170015  RH  026%=      5-min Rain = 0
KBR1 141640Z 23010KT 22/02 A2999 RMK A01 T02200015  RH  026%=      5-min Rain = 0
KBR1 141641Z 23009KT 22/01 A2999 RMK A01 T02200010  RH  025%=      5-min Rain = 0
KBR1 141642Z 23009KT 22/01 A2999 RMK A01 T02180012  RH  025%=      5-min Rain = 0
KBR1 141643Z 22010KT 22/01 A2999 RMK A01 T02170012  RH  026%=      5-min Rain = 0
KBR1 141644Z 22010KT 22/02 A2999 RMK A01 T02180016  RH  026%=      5-min Rain = 0
KBR1 141645Z 22009KT 22/01 A2999 RMK A01 T02200013  RH  025%=      5-min Rain = 0
KBR1 141646Z 22011KT 22/02 A2999 RMK A01 T02220015  RH  026%=      5-min Rain = 0
KBR1 141647Z 22010KT 22/01 A2999 RMK A01 T02240013  RH  025%=      5-min Rain = 0
KBR1 141648Z 23006KT 22/01 A2999 RMK A01 T02210009  RH  024%=      5-min Rain = 0
KBR1 141649Z 21007KT 22/02 A2999 RMK A01 T02200017  RH  026%=      5-min Rain = 0
KBR1 141650Z 21008KT 22/02 A2999 RMK A01 T02240017  RH  026%=      5-min Rain = 0
KBR1 141651Z 21011KT 23/02 A2999 RMK A01 T02280020  RH  026%=      5-min Rain = 0
KBR1 141652Z 22014KT 23/02 A2999 RMK A01 T02300016  RH  025%=      5-min Rain = 0
KBR1 141653Z 22010KT 23/01 A2999 RMK A01 T02270012  RH  024%=      5-min Rain = 0
KBR1 141654Z 21010KT 22/01 A2999 RMK A01 T02240013  RH  025%=      5-min Rain = 0
KBR1 141655Z 22011KT 23/02 A2999 RMK A01 T02250015  RH  025%=      5-min Rain = 0
KBR1 141656Z 22011KT 23/02 A2999 RMK A01 T02260015  RH  025%=      5-min Rain = 0
KBR1 141657Z 22012KT 23/02 A2999 RMK A01 T02280016  RH  025%=      5-min Rain = 0
KBR1 141658Z 22012KT 23/02 A2999 RMK A01 T02290015  RH  024%=      5-min Rain = 0
KBR1 141659Z 21011KT 23/01 A2999 RMK A01 T02280013  RH  024%=      5-min Rain = 0
KBR1 141700Z 21011KT 23/01 A2998 RMK A01 T02270012  RH  024%=      5-min Rain = 0
KBR1 141701Z 21012KT 23/02 A2998 RMK A01 T02270016  RH  025%=      5-min Rain = 0
KBR1 141702Z 22010KT 23/02 A2998 RMK A01 T02280015  RH  024%=      5-min Rain = 0
KBR1 141703Z 21010KT 23/02 A2998 RMK A01 T02290017  RH  025%=      5-min Rain = 0
KBR1 141704Z 21008KT 23/01 A2998 RMK A01 T02290013  RH  024%=      5-min Rain = 0
KBR1 141705Z 24007KT 23/01 A2998 RMK A01 T02260012  RH  024%=      5-min Rain = 0
KBR1 141706Z 23011KT 23/02 A2998 RMK A01 T02260015  RH  025%=      5-min Rain = 0
KBR1 141707Z 23010KT 23/01 A2998 RMK A01 T02260012  RH  024%=      5-min Rain = 0
KBR1 141708Z 25009KT 23/01 A2998 RMK A01 T02260012  RH  024%=      5-min Rain = 0
KBR1 141709Z 23009KT 23/02 A2998 RMK A01 T02270015  RH  025%=      5-min Rain = 0
KBR1 141710Z 24009KT 23/02 A2998 RMK A01 T02290015  RH  024%=      5-min Rain = 0
KBR1 141711Z 22011KT 23/01 A2998 RMK A01 T02280012  RH  024%=      5-min Rain = 0
KBR1 141712Z 23011KT 23/01 A2998 RMK A01 T02260013  RH  024%=      5-min Rain = 0
KBR1 141713Z 21011KT 23/01 A2998 RMK A01 T02270013  RH  024%=      5-min Rain = 0
KBR1 141714Z 23011KT 23/01 A2998 RMK A01 T02280013  RH  024%=      5-min Rain = 0
KBR1 141715Z 21010KT 23/02 A2998 RMK A01 T02300017  RH  025%=      5-min Rain = 0
KBR1 141716Z 23010KT 23/02 A2998 RMK A01 T02330018  RH  024%=      5-min Rain = 0
KBR1 141717Z 24010KT 23/02 A2998 RMK A01 T02340015  RH  024%=      5-min Rain = 0
KBR1 141718Z 22013KT 23/02 A2998 RMK A01 T02330015  RH  024%=      5-min Rain = 0
KBR1 141719Z 22014KT 23/01 A2998 RMK A01 T02330014  RH  024%=      5-min Rain = 0
KBR1 141720Z 22011KT 23/01 A2998 RMK A01 T02330014  RH  024%=      5-min Rain = 0
KBR1 141721Z 22008KT 23/02 A2998 RMK A01 T02340019  RH  024%=      5-min Rain = 0
KBR1 141722Z 23014KT 24/02 A2998 RMK A01 T02370018  RH  024%=      5-min Rain = 0
KBR1 141723Z 22012KT 24/01 A2998 RMK A01 T02360014  RH  023%=      5-min Rain = 0
KBR1 141724Z 22014KT 23/01 A2997 RMK A01 T02330014  RH  024%=      5-min Rain = 0
KBR1 141725Z 23012KT 23/01 A2997 RMK A01 T02320014  RH  024%=      5-min Rain = 0
KBR1 141726Z 23009KT 23/01 A2997 RMK A01 T02290014  RH  024%=      5-min Rain = 0
KBR1 141727Z 24010KT 23/02 A2997 RMK A01 T02300015  RH  024%=      5-min Rain = 0
KBR1 141728Z 24012KT 23/02 A2997 RMK A01 T02320016  RH  024%=      5-min Rain = 0
KBR1 141729Z 23014KT 23/02 A2997 RMK A01 T02340019  RH  024%=      5-min Rain = 0
KBR1 141730Z 23010KT 23/02 A2997 RMK A01 T02340017  RH  024%=      5-min Rain = 0
KBR1 141731Z 24010KT 23/02 A2997 RMK A01 T02330018  RH  024%=      5-min Rain = 0
KBR1 141732Z 25011KT 24/02 A2997 RMK A01 T02360021  RH  024%=      5-min Rain = 0
KBR1 141733Z 25011KT 24/02 A2997 RMK A01 T02380019  RH  024%=      5-min Rain = 0
KBR1 141734Z 24012KT 24/02 A2997 RMK A01 T02380018  RH  024%=      5-min Rain = 0
KBR1 141735Z 23013KT 24/02 A2997 RMK A01 T02370017  RH  024%=      5-min Rain = 0
KBR1 141736Z 25010KT 24/02 A2997 RMK A01 T02350017  RH  024%=      5-min Rain = 0
KBR1 141737Z 22011KT 24/02 A2997 RMK A01 T02360020  RH  024%=      5-min Rain = 0
KBR1 141738Z 22014KT 24/02 A2997 RMK A01 T02380019  RH  024%=      5-min Rain = 0
KBR1 141739Z 23014KT 24/02 A2997 RMK A01 T02390020  RH  024%=      5-min Rain = 0
KBR1 141740Z 23012KT 24/02 A2997 RMK A01 T02390017  RH  023%=      5-min Rain = 0
KBR1 141741Z 24010KT 24/02 A2997 RMK A01 T02380019  RH  024%=      5-min Rain = 0
KBR1 141742Z 25012KT 24/02 A2997 RMK A01 T02390022  RH  024%=      5-min Rain = 0
KBR1 141743Z 24011KT 24/02 A2997 RMK A01 T02420022  RH  024%=      5-min Rain = 0
KBR1 141744Z 23015KT 24/02 A2997 RMK A01 T02430021  RH  023%=      5-min Rain = 0
KBR1 141745Z 23012KT 24/02 A2997 RMK A01 T02420018  RH  023%=      5-min Rain = 0
KBR1 141746Z 24011KT 24/02 A2997 RMK A01 T02400018  RH  023%=      5-min Rain = 0
KBR1 141747Z 24010KT 24/02 A2997 RMK A01 T02390018  RH  023%=      5-min Rain = 0
KBR1 141748Z 24010KT 24/02 A2996 RMK A01 T02390021  RH  024%=      5-min Rain = 0
KBR1 141749Z 23013KT 24/02 A2996 RMK A01 T02420020  RH  023%=      5-min Rain = 0
KBR1 141750Z 22011KT 24/02 A2996 RMK A01 T02420020  RH  023%=      5-min Rain = 0
KBR1 141751Z 22012KT 24/02 A2996 RMK A01 T02420022  RH  024%=      5-min Rain = 0
KBR1 141752Z 23015KT 24/02 A2996 RMK A01 T02420020  RH  023%=      5-min Rain = 0
KBR1 141753Z 23013KT 24/02 A2996 RMK A01 T02420020  RH  023%=      5-min Rain = 0
KBR1 141754Z 22010KT 24/02 A2996 RMK A01 T02420019  RH  023%=      5-min Rain = 0
KBR1 141755Z 22011KT 24/02 A2996 RMK A01 T02410019  RH  023%=      5-min Rain = 0
KBR1 141756Z 24012KT 24/02 A2996 RMK A01 T02400020  RH  024%=      5-min Rain = 0
KBR1 141757Z 25011KT 24/02 A2996 RMK A01 T02420020  RH  023%=      5-min Rain = 0
KBR1 141758Z 24010KT 24/02 A2996 RMK A01 T02420021  RH  023%=      5-min Rain = 0
KBR1 141759Z 25008KT 24/02 A2996 RMK A01 T02420020  RH  023%=      5-min Rain = 0
KBR1 141800Z 25012KT 24/02 A2996 RMK A01 T02430023  RH  024%=      5-min Rain = 0
KBR1 141801Z 24011KT 25/02 A2996 RMK A01 T02460024  RH  023%=      5-min Rain = 0
KBR1 141802Z 24012KT 25/02 A2996 RMK A01 T02470023  RH  023%=      5-min Rain = 0
KBR1 141803Z 24011KT 25/02 A2996 RMK A01 T02470022  RH  023%=      5-min Rain = 0
KBR1 141804Z 24011KT 25/02 A2995 RMK A01 T02460022  RH  023%=      5-min Rain = 0
KBR1 141805Z 24011KT 25/03 A2995 RMK A01 T02460025  RH  024%=      5-min Rain = 0
KBR1 141806Z 25011KT 25/02 A2995 RMK A01 T02470018  RH  022%=      5-min Rain = 0
KBR1 141807Z 24012KT 25/02 A2995 RMK A01 T02450020  RH  023%=      5-min Rain = 0
KBR1 141808Z 25013KT 25/02 A2995 RMK A01 T02470023  RH  023%=      5-min Rain = 0
KBR1 141809Z 24013KT 25/02 A2995 RMK A01 T02470021  RH  023%=      5-min Rain = 0
KBR1 141810Z 23011KT 25/02 A2995 RMK A01 T02460023  RH  023%=      5-min Rain = 0
KBR1 141811Z 22009KT 25/02 A2995 RMK A01 T02470022  RH  023%=      5-min Rain = 0
KBR1 141812Z 23008G13KT 25/03 A2995 RMK A01 T02470025  RH  024%=      5-min Rain = 0
KBR1 141813Z 23012KT 25/02 A2995 RMK A01 T02480021  RH  023%=      5-min Rain = 0
KBR1 141814Z 24012KT 25/02 A2995 RMK A01 T02480022  RH  023%=      5-min Rain = 0
KBR1 141815Z 24010KT 25/02 A2995 RMK A01 T02490022  RH  023%=      5-min Rain = 0
KBR1 141816Z 24011KT 25/02 A2995 RMK A01 T02500023  RH  023%=      5-min Rain = 0
KBR1 141817Z 24013KT 25/02 A2995 RMK A01 T02490021  RH  023%=      5-min Rain = 0
KBR1 141818Z 24013KT 25/02 A2995 RMK A01 T02490022  RH  023%=      5-min Rain = 0
KBR1 141819Z 24011KT 25/02 A2995 RMK A01 T02470021  RH  023%=      5-min Rain = 0
KBR1 141820Z 24012KT 25/02 A2995 RMK A01 T02490022  RH  023%=      5-min Rain = 0
KBR1 141821Z 26010KT 25/02 A2995 RMK A01 T02490020  RH  023%=      5-min Rain = 0
KBR1 141822Z 24012KT 25/02 A2995 RMK A01 T02490023  RH  023%=      5-min Rain = 0
KBR1 141823Z 23012KT 25/03 A2995 RMK A01 T02520025  RH  023%=      5-min Rain = 0
KBR1 141824Z 21010KT 25/02 A2995 RMK A01 T02530023  RH  022%=      5-min Rain = 0
KBR1 141825Z 23011KT 25/03 A2995 RMK A01 T02520026  RH  023%=      5-min Rain = 0
KBR1 141826Z 23013KT 25/03 A2995 RMK A01 T02520025  RH  023%=      5-min Rain = 0
KBR1 141827Z 24011KT 25/02 A2995 RMK A01 T02530024  RH  022%=      5-min Rain = 0
KBR1 141828Z 23010KT 26/03 A2995 RMK A01 T02550026  RH  023%=      5-min Rain = 0
KBR1 141829Z 22011KT 26/03 A2994 RMK A01 T02560027  RH  023%=      5-min Rain = 0
KBR1 141830Z 22010KT 26/03 A2994 RMK A01 T02560027  RH  023%=      5-min Rain = 0
KBR1 141831Z 21015KT 26/03 A2994 RMK A01 T02570025  RH  022%=      5-min Rain = 0
KBR1 141832Z 22013KT 26/02 A2994 RMK A01 T02570024  RH  022%=      5-min Rain = 0
KBR1 141833Z 22010KT 26/02 A2995 RMK A01 T02550024  RH  022%=      5-min Rain = 0
KBR1 141834Z 22010KT 26/03 A2994 RMK A01 T02550025  RH  022%=      5-min Rain = 0
KBR1 141835Z 22009KT 26/03 A2994 RMK A01 T02550027  RH  023%=      5-min Rain = 0
KBR1 141836Z 24012KT 26/03 A2994 RMK A01 T02560028  RH  023%=      5-min Rain = 0
KBR1 141837Z 23011KT 26/03 A2994 RMK A01 T02580028  RH  022%=      5-min Rain = 0
KBR1 141838Z 24011KT 26/03 A2994 RMK A01 T02590027  RH  022%=      5-min Rain = 0
KBR1 141839Z 24010KT 26/03 A2994 RMK A01 T02570025  RH  022%=      5-min Rain = 0
KBR1 141840Z 23012KT 26/03 A2994 RMK A01 T02590029  RH  022%=      5-min Rain = 0
KBR1 141841Z 23010KT 26/03 A2994 RMK A01 T02600028  RH  022%=      5-min Rain = 0
KBR1 141842Z 22012KT 26/03 A2994 RMK A01 T02600029  RH  022%=      5-min Rain = 0
KBR1 141843Z 22010KT 26/03 A2994 RMK A01 T02600026  RH  022%=      5-min Rain = 0
KBR1 141844Z 23015KT 26/03 A2994 RMK A01 T02580025  RH  022%=      5-min Rain = 0
KBR1 141845Z 23012KT 26/02 A2994 RMK A01 T02570024  RH  022%=      5-min Rain = 0
KBR1 141846Z 23012KT 26/03 A2994 RMK A01 T02570027  RH  022%=      5-min Rain = 0
KBR1 141847Z 22011KT 26/03 A2994 RMK A01 T02580027  RH  022%=      5-min Rain = 0
KBR1 141848Z 21009KT 26/03 A2994 RMK A01 T02580027  RH  022%=      5-min Rain = 0
KBR1 141849Z 20011KT 26/03 A2994 RMK A01 T02600030  RH  022%=      5-min Rain = 0
KBR1 141850Z 23013KT 26/03 A2994 RMK A01 T02610031  RH  023%=      5-min Rain = 0
KBR1 141851Z 23012KT 26/03 A2994 RMK A01 T02630027  RH  022%=      5-min Rain = 0
KBR1 141852Z 23010KT 26/03 A2994 RMK A01 T02620028  RH  022%=      5-min Rain = 0
KBR1 141853Z 23011KT 26/03 A2994 RMK A01 T02620027  RH  022%=      5-min Rain = 0
KBR1 141854Z 23013KT 26/03 A2994 RMK A01 T02620027  RH  022%=      5-min Rain = 0
KBR1 141855Z 23010KT 26/03 A2994 RMK A01 T02610025  RH  022%=      5-min Rain = 0
KBR1 141856Z 23012KT 26/03 A2993 RMK A01 T02600028  RH  022%=      5-min Rain = 0
KBR1 141857Z 24012KT 26/02 A2993 RMK A01 T02620023  RH  021%=      5-min Rain = 0
KBR1 141858Z 23013KT 26/02 A2993 RMK A01 T02620024  RH  021%=      5-min Rain = 0
KBR1 141859Z 23011KT 26/02 A2993 RMK A01 T02620024  RH  021%=      5-min Rain = 0
KBR1 141900Z 24008KT 26/03 A2993 RMK A01 T02630030  RH  022%=      5-min Rain = 0
KBR1 141901Z 23009G15KT 26/03 A2993 RMK A01 T02640027  RH  022%=      5-min Rain = 0
KBR1 141902Z 23012KT 26/03 A2993 RMK A01 T02630025  RH  021%=      5-min Rain = 0
KBR1 141903Z 24013KT 26/02 A2993 RMK A01 T02640021  RH  021%=      5-min Rain = 0
KBR1 141904Z 24014KT 27/03 A2993 RMK A01 T02660026  RH  021%=      5-min Rain = 0
KBR1 141905Z 24013KT 27/02 A2993 RMK A01 T02660020  RH  020%=      5-min Rain = 0
KBR1 141906Z 22011KT 26/02 A2993 RMK A01 T02640022  RH  021%=      5-min Rain = 0
KBR1 141907Z 23009KT 26/02 A2993 RMK A01 T02640023  RH  021%=      5-min Rain = 0
KBR1 141908Z 23012KT 26/02 A2993 RMK A01 T02640024  RH  021%=      5-min Rain = 0
KBR1 141909Z 23010KT 26/03 A2993 RMK A01 T02640025  RH  021%=      5-min Rain = 0
KBR1 141910Z 22010KT 27/02 A2993 RMK A01 T02650022  RH  021%=      5-min Rain = 0
KBR1 141911Z 21012KT 26/02 A2993 RMK A01 T02640023  RH  021%=      5-min Rain = 0
KBR1 141912Z 20012KT 26/02 A2992 RMK A01 T02640023  RH  021%=      5-min Rain = 0
KBR1 141913Z 22011KT 26/03 A2992 RMK A01 T02640025  RH  021%=      5-min Rain = 0
KBR1 141914Z 24010KT 27/03 A2992 RMK A01 T02670026  RH  021%=      5-min Rain = 0
KBR1 141915Z 23011KT 27/02 A2992 RMK A01 T02690022  RH  020%=      5-min Rain = 0
KBR1 141916Z 23012KT 27/02 A2992 RMK A01 T02680021  RH  020%=      5-min Rain = 0
KBR1 141917Z 23014KT 27/02 A2992 RMK A01 T02690022  RH  020%=      5-min Rain = 0
KBR1 141918Z 23011KT 27/02 A2992 RMK A01 T02680020  RH  020%=      5-min Rain = 0
KBR1 141919Z 22008KT 27/02 A2992 RMK A01 T02670019  RH  020%=      5-min Rain = 0
KBR1 141920Z 22011KT 27/02 A2992 RMK A01 T02670022  RH  020%=      5-min Rain = 0
KBR1 141921Z 22010KT 27/02 A2992 RMK A01 T02680018  RH  020%=      5-min Rain = 0
KBR1 141922Z 22011KT 27/02 A2992 RMK A01 T02680020  RH  020%=      5-min Rain = 0
KBR1 141923Z 23011KT 27/02 A2992 RMK A01 T02700023  RH  020%=      5-min Rain = 0
KBR1 141924Z 24011KT 27/02 A2992 RMK A01 T02710017  RH  019%=      5-min Rain = 0
KBR1 141925Z 23010KT 27/02 A2992 RMK A01 T02710018  RH  019%=      5-min Rain = 0
KBR1 141926Z 23014KT 27/02 A2992 RMK A01 T02710017  RH  019%=      5-min Rain = 0
KBR1 141927Z 23013KT 27/01 A2992 RMK A01 T02720014  RH  019%=      5-min Rain = 0
KBR1 141928Z 24011KT 27/02 A2992 RMK A01 T02710016  RH  019%=      5-min Rain = 0
KBR1 141929Z 21011KT 27/02 A2991 RMK A01 T02700017  RH  019%=      5-min Rain = 0
KBR1 141930Z 22012KT 27/02 A2991 RMK A01 T02700017  RH  019%=      5-min Rain = 0
KBR1 141931Z 22009KT 27/02 A2991 RMK A01 T02710016  RH  019%=      5-min Rain = 0
KBR1 141932Z 20010G15KT 27/02 A2991 RMK A01 T02700019  RH  020%=      5-min Rain = 0
KBR1 141933Z 23012KT 27/02 A2991 RMK A01 T02730018  RH  019%=      5-min Rain = 0
KBR1 141934Z 22013KT 27/02 A2991 RMK A01 T02730017  RH  019%=      5-min Rain = 0
KBR1 141935Z 22012KT 27/02 A2991 RMK A01 T02740018  RH  019%=      5-min Rain = 0
KBR1 141936Z 20011KT 28/01 A2991 RMK A01 T02750014  RH  019%=      5-min Rain = 0
KBR1 141937Z 21008KT 27/01 A2991 RMK A01 T02720012  RH  019%=      5-min Rain = 0
KBR1 141938Z 22012KT 27/02 A2991 RMK A01 T02720015  RH  019%=      5-min Rain = 0
KBR1 141939Z 24011KT 28/02 A2991 RMK A01 T02750018  RH  019%=      5-min Rain = 0
KBR1 141940Z 22011KT 28/02 A2991 RMK A01 T02770018  RH  019%=      5-min Rain = 0
KBR1 141941Z 22010KT 28/01 A2991 RMK A01 T02770013  RH  018%=      5-min Rain = 0
KBR1 141942Z 21011G16KT 28/01 A2991 RMK A01 T02770012  RH  018%=      5-min Rain = 0
KBR1 141943Z 22011KT 28/01 A2991 RMK A01 T02760010  RH  018%=      5-min Rain = 0
KBR1 141944Z 23014KT 27/02 A2991 RMK A01 T02740016  RH  019%=      5-min Rain = 0
KBR1 141945Z 22012KT 28/02 A2991 RMK A01 T02750015  RH  019%=      5-min Rain = 0
KBR1 141946Z 22009KT 27/01 A2991 RMK A01 T02740009  RH  018%=      5-min Rain = 0
KBR1 141947Z 21014KT 27/01 A299 RMK A01 T02740012  RH  018%=      5-min Rain = 0
KBR1 141948Z 21013KT 28/01 A2991 RMK A01 T02750006  RH  017%=      5-min Rain = 0
KBR1 141949Z 23010KT 28/01 A2991 RMK A01 T02770013  RH  018%=      5-min Rain = 0
KBR1 141950Z 23011KT 28/01 A2991 RMK A01 T02800012  RH  018%=      5-min Rain = 0
KBR1 141951Z 22009KT 28/01 A2991 RMK A01 T02800009  RH  017%=      5-min Rain = 0
KBR1 141952Z 21007KT 28/01 A299 RMK A01 T02770007  RH  017%=      5-min Rain = 0
KBR1 141953Z 22009G14KT 28/01 A299 RMK A01 T02760008  RH  018%=      5-min Rain = 0
KBR1 141954Z 21013KT 28/01 A299 RMK A01 T02780007  RH  017%=      5-min Rain = 0
KBR1 141955Z 22010KT 28/01 A299 RMK A01 T02800011  RH  017%=      5-min Rain = 0
KBR1 141956Z 23013KT 28/01 A299 RMK A01 T02830010  RH  017%=      5-min Rain = 0
KBR1 141957Z 23015KT 28/01 A299 RMK A01 T02820008  RH  017%=      5-min Rain = 0
KBR1 141958Z 24014KT 28/01 A299 RMK A01 T02820009  RH  017%=      5-min Rain = 0
KBR1 141959Z 23012KT 28/01 A299 RMK A01 T02810009  RH  017%=      5-min Rain = 0
KBR1 142000Z 24011KT 28/01 A299 RMK A01 T02800007  RH  017%=      5-min Rain = 0
KBR1 142001Z 22008G13KT 28/00 A299 RMK A01 T02780004  RH  017%=      5-min Rain = 0
KBR1 142002Z 25007KT 28/01 A299 RMK A01 T02790012  RH  018%=      5-min Rain = 0
KBR1 142003Z 24010KT 28/01 A299 RMK A01 T02800011  RH  018%=      5-min Rain = 0
KBR1 142004Z 24012KT 28/00 A299 RMK A01 T02820004  RH  016%=      5-min Rain = 0
KBR1 142005Z 23013KT 28/M01 A299 RMK A01 T02801005  RH  016%=      5-min Rain = 0
KBR1 142006Z 24013KT 28/M01 A299 RMK A01 T02771005  RH  016%=      5-min Rain = 0
KBR1 142007Z 23010KT 28/M01 A299 RMK A01 T02781010  RH  015%=      5-min Rain = 0
KBR1 142008Z 23011KT 28/M01 A299 RMK A01 T02771005  RH  016%=      5-min Rain = 0
KBR1 142009Z 25012KT 28/M00 A299 RMK A01 T02781001  RH  016%=      5-min Rain = 0
KBR1 142010Z 25011KT 28/00 A299 RMK A01 T027700-0  RH  016%=      5-min Rain = 0
KBR1 142011Z 24008KT 28/00 A299 RMK A01 T02770001  RH  017%=      5-min Rain = 0
KBR1 142012Z 24008KT 28/00 A299 RMK A01 T02770002  RH  017%=      5-min Rain = 0
KBR1 142013Z 23016KT 28/00 A2989 RMK A01 T02790002  RH  017%=      5-min Rain = 0
KBR1 142014Z 23016KT 28/M00 A2989 RMK A01 T02821001  RH  016%=      5-min Rain = 0
KBR1 142015Z 24016G21KT 28/M01 A2989 RMK A01 T02841007  RH  015%=      5-min Rain = 0
KBR1 142016Z 24016G22KT 28/M01 A299 RMK A01 T02821012  RH  015%=      5-min Rain = 0
KBR1 142017Z 24012KT 28/M01 A2989 RMK A01 T02811010  RH  015%=      5-min Rain = 0
KBR1 142018Z 23012KT 28/M00 A2989 RMK A01 T02811003  RH  016%=      5-min Rain = 0
KBR1 142019Z 23014KT 29/M01 A2989 RMK A01 T02861005  RH  015%=      5-min Rain = 0
KBR1 142020Z 23012KT 28/M01 A2989 RMK A01 T02831007  RH  015%=      5-min Rain = 0
KBR1 142021Z 23012KT 28/M01 A2989 RMK A01 T02811008  RH  015%=      5-min Rain = 0
KBR1 142022Z 20013KT 28/M00 A2989 RMK A01 T02811003  RH  016%=      5-min Rain = 0
KBR1 142023Z 23011KT 28/M00 A2989 RMK A01 T02831004  RH  015%=      5-min Rain = 0
KBR1 142024Z 25015KT 28/00 A2989 RMK A01 T02840001  RH  016%=      5-min Rain = 0
KBR1 142025Z 27014KT 29/M00 A2989 RMK A01 T02861002  RH  015%=      5-min Rain = 0
KBR1 142026Z 27012KT 28/M01 A2989 RMK A01 T02841005  RH  015%=      5-min Rain = 0
KBR1 142027Z 24015KT 28/M00 A2989 RMK A01 T02831001  RH  016%=      5-min Rain = 0
KBR1 142028Z 26019KT 28/M00 A2989 RMK A01 T02831003  RH  016%=      5-min Rain = 0
KBR1 142029Z 26018KT 28/M00 A2989 RMK A01 T02831003  RH  016%=      5-min Rain = 0
KBR1 142030Z 25015KT 28/M00 A2989 RMK A01 T02831003  RH  016%=      5-min Rain = 0
KBR1 142031Z 25014KT 28/M00 A2989 RMK A01 T02811003  RH  016%=      5-min Rain = 0
KBR1 142032Z 26012KT 28/M00 A2989 RMK A01 T02801004  RH  016%=      5-min Rain = 0
KBR1 142033Z 26010KT 28/M00 A2989 RMK A01 T02801002  RH  016%=      5-min Rain = 0
KBR1 142034Z 25011KT 28/00 A2989 RMK A01 T02800002  RH  016%=      5-min Rain = 0
KBR1 142035Z 26014KT 28/00 A2989 RMK A01 T02820001  RH  016%=      5-min Rain = 0
KBR1 142036Z 26012KT 28/00 A2989 RMK A01 T028200-0  RH  016%=      5-min Rain = 0
KBR1 142037Z 23012G17KT 28/00 A2989 RMK A01 T02810004  RH  017%=      5-min Rain = 0
KBR1 142038Z 22016G21KT 29/01 A2988 RMK A01 T02850006  RH  016%=      5-min Rain = 0
KBR1 142039Z 24012KT 29/00 A2989 RMK A01 T02860003  RH  016%=      5-min Rain = 0
KBR1 142040Z 23012KT 28/00 A2989 RMK A01 T02840003  RH  016%=      5-min Rain = 0
KBR1 142041Z 22015KT 28/00 A2988 RMK A01 T02840002  RH  016%=      5-min Rain = 0
KBR1 142042Z 21014KT 28/00 A2988 RMK A01 T02840002  RH  016%=      5-min Rain = 0
KBR1 142043Z 20012KT 28/M00 A2988 RMK A01 T02831001  RH  016%=      5-min Rain = 0
KBR1 142044Z 21011KT 28/00 A2988 RMK A01 T02810001  RH  016%=      5-min Rain = 0
KBR1 142045Z 22011KT 28/01 A2988 RMK A01 T02840008  RH  017%=      5-min Rain = 0
KBR1 142046Z 23011KT 29/00 A2988 RMK A01 T02860004  RH  016%=      5-min Rain = 0
KBR1 142047Z 22015KT 29/01 A2988 RMK A01 T02870008  RH  016%=      5-min Rain = 0
KBR1 142048Z 23015KT 29/01 A2988 RMK A01 T02870005  RH  016%=      5-min Rain = 0
KBR1 142049Z 24010KT 28/M00 A2988 RMK A01 T02841001  RH  016%=      5-min Rain = 0
KBR1 142050Z 23011KT 28/00 A2988 RMK A01 T02810002  RH  016%=      5-min Rain = 0
KBR1 142051Z 23012KT 28/01 A2988 RMK A01 T02810005  RH  017%=      5-min Rain = 0
KBR1 142052Z 24016G23KT 29/01 A2988 RMK A01 T02850008  RH  017%=      5-min Rain = 0
KBR1 142053Z 24013KT 29/01 A2988 RMK A01 T02870006  RH  016%=      5-min Rain = 0
KBR1 142054Z 25009KT 29/00 A2988 RMK A01 T02860003  RH  016%=      5-min Rain = 0
KBR1 142055Z 24012KT 28/00 A2988 RMK A01 T02830001  RH  016%=      5-min Rain = 0
KBR1 142056Z 23014KT 28/00 A2988 RMK A01 T02820004  RH  016%=      5-min Rain = 0
KBR1 142057Z 20012KT 28/00 A2988 RMK A01 T02820003  RH  016%=      5-min Rain = 0
KBR1 142058Z 21012KT 28/00 A2988 RMK A01 T02830003  RH  016%=      5-min Rain = 0
KBR1 142059Z 22012KT 28/00 A2988 RMK A01 T02830004  RH  016%=      5-min Rain = 0
KBR1 142100Z 22013KT 28/01 A2988 RMK A01 T02840005  RH  016%=      5-min Rain = 0
KBR1 142101Z 23015KT 29/01 A2988 RMK A01 T02870006  RH  016%=      5-min Rain = 0
KBR1 142102Z 25014KT 29/00 A2988 RMK A01 T02870002  RH  016%=      5-min Rain = 0
KBR1 142103Z 24014KT 29/00 A2988 RMK A01 T02860002  RH  016%=      5-min Rain = 0
KBR1 142104Z 25011KT 29/00 A2988 RMK A01 T02860001  RH  016%=      5-min Rain = 0
KBR1 142105Z 25012KT 29/00 A2988 RMK A01 T02850001  RH  016%=      5-min Rain = 0
KBR1 142106Z 25010KT 28/00 A2988 RMK A01 T02840002  RH  016%=      5-min Rain = 0
KBR1 142107Z 21011G16KT 28/01 A2987 RMK A01 T02840007  RH  017%=      5-min Rain = 0
KBR1 142108Z 19011KT 29/01 A2987 RMK A01 T02870007  RH  016%=      5-min Rain = 0
KBR1 142109Z 21009KT 29/01 A2987 RMK A01 T02860006  RH  016%=      5-min Rain = 0
KBR1 142110Z 22008KT 29/01 A2987 RMK A01 T02870006  RH  016%=      5-min Rain = 0
KBR1 142111Z 20009KT 29/00 A2987 RMK A01 T02880002  RH  016%=      5-min Rain = 0
KBR1 142112Z 20011KT 29/01 A2987 RMK A01 T02880005  RH  016%=      5-min Rain = 0
KBR1 142113Z 20011KT 29/01 A2987 RMK A01 T02880007  RH  016%=      5-min Rain = 0
KBR1 142114Z 21013G19KT 29/01 A2987 RMK A01 T02890007  RH  016%=      5-min Rain = 0
KBR1 142115Z 22018KT 29/M00 A2987 RMK A01 T02901001  RH  015%=      5-min Rain = 0
KBR1 142116Z 22013KT 29/M01 A2987 RMK A01 T02891008  RH  014%=      5-min Rain = 0
KBR1 142117Z 23011KT 29/M01 A2987 RMK A01 T02871010  RH  014%=      5-min Rain = 0
KBR1 142118Z 23011KT 29/M01 A2987 RMK A01 T02861008  RH  015%=      5-min Rain = 0
KBR1 142119Z 22012KT 29/M01 A2987 RMK A01 T02861005  RH  015%=      5-min Rain = 0
KBR1 142120Z 22016KT 29/M00 A2987 RMK A01 T02871004  RH  015%=      5-min Rain = 0
KBR1 142121Z 22013KT 29/M01 A2987 RMK A01 T02881008  RH  015%=      5-min Rain = 0
KBR1 142122Z 23013G18KT 29/M00 A2987 RMK A01 T02871004  RH  015%=      5-min Rain = 0
KBR1 142123Z 24014G19KT 29/M01 A2987 RMK A01 T02871007  RH  015%=      5-min Rain = 0
KBR1 142124Z 22016KT 29/M00 A2987 RMK A01 T02871004  RH  015%=      5-min Rain = 0
KBR1 142125Z 22017KT 29/M00 A2987 RMK A01 T02901002  RH  015%=      5-min Rain = 0
KBR1 142126Z 23015KT 29/M01 A2987 RMK A01 T02901005  RH  015%=      5-min Rain = 0
KBR1 142127Z 22015KT 29/M01 A2987 RMK A01 T02881005  RH  015%=      5-min Rain = 0
KBR1 142128Z 21014KT 29/M00 A2987 RMK A01 T02881003  RH  015%=      5-min Rain = 0
KBR1 142129Z 22013KT 29/M01 A2987 RMK A01 T02891006  RH  015%=      5-min Rain = 0
KBR1 142130Z 21013KT 29/M01 A2987 RMK A01 T02881005  RH  015%=      5-min Rain = 0
KBR1 142131Z 22013KT 29/M00 A2987 RMK A01 T02891003  RH  015%=      5-min Rain = 0
KBR1 142132Z 22015KT 29/M01 A2987 RMK A01 T02891005  RH  015%=      5-min Rain = 0
KBR1 142133Z 23014KT 29/M00 A2987 RMK A01 T02881003  RH  015%=      5-min Rain = 0
KBR1 142134Z 22016G21KT 29/M00 A2987 RMK A01 T02891002  RH  015%=      5-min Rain = 0
KBR1 142135Z 20015KT 29/M01 A2987 RMK A01 T02891006  RH  015%=      5-min Rain = 0
KBR1 142136Z 21013KT 29/M00 A2987 RMK A01 T02881004  RH  015%=      5-min Rain = 0
KBR1 142137Z 24011KT 29/M00 A2987 RMK A01 T02901003  RH  015%=      5-min Rain = 0
KBR1 142138Z 24013KT 29/M01 A2987 RMK A01 T02911007  RH  014%=      5-min Rain = 0
KBR1 142139Z 24016KT 29/M01 A2987 RMK A01 T02911009  RH  014%=      5-min Rain = 0
KBR1 142140Z 23014KT 29/M01 A2987 RMK A01 T02891012  RH  014%=      5-min Rain = 0
KBR1 142141Z 21018KT 29/M01 A2987 RMK A01 T02881013  RH  014%=      5-min Rain = 0
KBR1 142142Z 22016KT 29/M02 A2987 RMK A01 T02871015  RH  014%=      5-min Rain = 0
KBR1 142143Z 22014KT 29/M01 A2987 RMK A01 T02871013  RH  014%=      5-min Rain = 0
KBR1 142144Z 23013KT 29/M01 A2987 RMK A01 T02881012  RH  014%=      5-min Rain = 0
KBR1 142145Z 23014KT 29/M01 A2987 RMK A01 T02891013  RH  014%=      5-min Rain = 0
KBR1 142146Z 22016KT 29/M02 A2987 RMK A01 T02881015  RH  014%=      5-min Rain = 0
KBR1 142147Z 22016KT 29/M01 A2987 RMK A01 T02881010  RH  014%=      5-min Rain = 0
KBR1 142148Z 23013KT 29/M01 A2987 RMK A01 T02881013  RH  014%=      5-min Rain = 0
KBR1 142149Z 22012KT 29/M01 A2987 RMK A01 T02871011  RH  014%=      5-min Rain = 0
KBR1 142150Z 21015KT 29/M01 A2987 RMK A01 T02881010  RH  014%=      5-min Rain = 0
KBR1 142151Z 21017KT 29/M01 A2986 RMK A01 T02891011  RH  014%=      5-min Rain = 0
KBR1 142152Z 22018KT 29/M01 A2987 RMK A01 T02891011  RH  014%=      5-min Rain = 0
KBR1 142153Z 23020KT 29/M01 A2987 RMK A01 T02891013  RH  014%=      5-min Rain = 0
KBR1 142154Z 23018KT 29/M02 A2987 RMK A01 T02881017  RH  014%=      5-min Rain = 0
KBR1 142155Z 23016KT 29/M01 A2987 RMK A01 T02871014  RH  014%=      5-min Rain = 0
KBR1 142156Z 22015KT 29/M01 A2987 RMK A01 T02871011  RH  014%=      5-min Rain = 0
KBR1 142157Z 22013KT 29/M01 A2986 RMK A01 T02881007  RH  015%=      5-min Rain = 0
KBR1 142158Z 24013G18KT 29/M01 A2987 RMK A01 T02901005  RH  015%=      5-min Rain = 0
KBR1 142159Z 24013KT 29/M01 A2987 RMK A01 T02901010  RH  014%=      5-min Rain = 0
KBR1 142200Z 23013G19KT 29/M01 A2987 RMK A01 T02881011  RH  014%=      5-min Rain = 0
KBR1 142201Z 22017KT 29/M01 A2986 RMK A01 T02871012  RH  014%=      5-min Rain = 0
KBR1 142202Z 23016KT 29/M01 A2986 RMK A01 T02871009  RH  015%=      5-min Rain = 0
KBR1 142203Z 23014KT 29/M01 A2986 RMK A01 T02871012  RH  014%=      5-min Rain = 0
KBR1 142204Z 23014G19KT 29/M01 A2987 RMK A01 T02871010  RH  014%=      5-min Rain = 0
KBR1 142205Z 23015KT 29/M01 A2987 RMK A01 T02881007  RH  015%=      5-min Rain = 0
KBR1 142206Z 23015KT 29/M01 A2987 RMK A01 T02891011  RH  014%=      5-min Rain = 0
KBR1 142207Z 24015KT 29/M01 A2986 RMK A01 T02881011  RH  014%=      5-min Rain = 0
KBR1 142208Z 24016KT 29/M01 A2987 RMK A01 T02881010  RH  014%=      5-min Rain = 0
KBR1 142209Z 24016KT 29/M02 A2987 RMK A01 T02881015  RH  014%=      5-min Rain = 0
KBR1 142210Z 24014KT 29/M01 A2987 RMK A01 T02861014  RH  014%=      5-min Rain = 0
KBR1 142211Z 24015KT 29/M02 A2987 RMK A01 T02851015  RH  014%=      5-min Rain = 0
KBR1 142212Z 22011KT 29/M01 A2986 RMK A01 T02851010  RH  015%=      5-min Rain = 0
KBR1 142213Z 22016KT 29/M01 A2986 RMK A01 T02861007  RH  015%=      5-min Rain = 0
KBR1 142214Z 23017KT 29/M01 A2986 RMK A01 T02881012  RH  014%=      5-min Rain = 0
KBR1 142215Z 24013KT 29/M01 A2987 RMK A01 T02861012  RH  014%=      5-min Rain = 0
KBR1 142216Z 23016KT 29/M01 A2987 RMK A01 T02861012  RH  014%=      5-min Rain = 0
KBR1 142217Z 23013KT 29/M01 A2986 RMK A01 T02851013  RH  014%=      5-min Rain = 0
KBR1 142218Z 22012KT 28/M01 A2986 RMK A01 T02841011  RH  015%=      5-min Rain = 0
KBR1 142219Z 22013KT 28/M01 A2986 RMK A01 T02841012  RH  014%=      5-min Rain = 0
KBR1 142220Z 23014KT 28/M01 A2986 RMK A01 T02841011  RH  015%=      5-min Rain = 0
KBR1 142221Z 23012KT 29/M01 A2987 RMK A01 T02851007  RH  015%=      5-min Rain = 0
KBR1 142222Z 24012KT 29/M01 A2987 RMK A01 T02861007  RH  015%=      5-min Rain = 0
KBR1 142223Z 24013KT 29/M01 A2987 RMK A01 T02871008  RH  015%=      5-min Rain = 0
KBR1 142224Z 24014KT 29/M01 A2987 RMK A01 T02861007  RH  015%=      5-min Rain = 0
KBR1 142225Z 24014KT 29/M01 A2987 RMK A01 T02851011  RH  015%=      5-min Rain = 0
KBR1 142226Z 24014KT 28/M01 A2987 RMK A01 T02841009  RH  015%=      5-min Rain = 0
KBR1 142227Z 23014KT 28/M01 A2987 RMK A01 T02841007  RH  015%=      5-min Rain = 0
KBR1 142228Z 21013KT 28/M01 A2986 RMK A01 T02841007  RH  015%=      5-min Rain = 0
KBR1 142229Z 21013KT 28/M01 A2986 RMK A01 T02841008  RH  015%=      5-min Rain = 0
KBR1 142230Z 22011KT 28/M01 A2986 RMK A01 T02831010  RH  015%=      5-min Rain = 0
KBR1 142231Z 23010KT 28/M01 A2986 RMK A01 T02831006  RH  015%=      5-min Rain = 0
KBR1 142232Z 24010KT 28/M01 A2986 RMK A01 T02831008  RH  015%=      5-min Rain = 0
KBR1 142233Z 22010KT 28/M01 A2986 RMK A01 T02841005  RH  015%=      5-min Rain = 0
KBR1 142234Z 22016KT 28/M01 A2986 RMK A01 T02841007  RH  015%=      5-min Rain = 0
KBR1 142235Z 23012KT 28/M01 A2986 RMK A01 T02841006  RH  015%=      5-min Rain = 0
KBR1 142236Z 23010KT 28/M00 A2986 RMK A01 T02841002  RH  016%=      5-min Rain = 0
KBR1 142237Z 23013KT 29/M00 A2986 RMK A01 T02861004  RH  015%=      5-min Rain = 0
KBR1 142238Z 23016KT 29/M01 A2986 RMK A01 T02861005  RH  015%=      5-min Rain = 0
KBR1 142239Z 23014KT 29/M01 A2986 RMK A01 T02851007  RH  015%=      5-min Rain = 0
KBR1 142240Z 23013KT 28/M01 A2986 RMK A01 T02841008  RH  015%=      5-min Rain = 0
KBR1 142241Z 22012KT 28/M01 A2986 RMK A01 T02841007  RH  015%=      5-min Rain = 0
KBR1 142242Z 23013KT 28/M01 A2986 RMK A01 T02841007  RH  015%=      5-min Rain = 0
KBR1 142243Z 22011KT 28/M01 A2986 RMK A01 T02841009  RH  015%=      5-min Rain = 0
KBR1 142244Z 22009KT 28/M00 A2986 RMK A01 T02841002  RH  016%=      5-min Rain = 0
KBR1 142245Z 23010KT 29/M00 A2986 RMK A01 T02851002  RH  015%=      5-min Rain = 0
KBR1 142246Z 22011KT 29/M01 A2986 RMK A01 T02851005  RH  015%=      5-min Rain = 0
KBR1 142247Z 22014KT 29/M01 A2986 RMK A01 T02851007  RH  015%=      5-min Rain = 0
KBR1 142248Z 22012KT 29/M01 A2986 RMK A01 T02851009  RH  015%=      5-min Rain = 0
KBR1 142249Z 23014KT 28/M01 A2986 RMK A01 T02841006  RH  015%=      5-min Rain = 0
KBR1 142250Z 24015KT 28/M01 A2986 RMK A01 T02841007  RH  015%=      5-min Rain = 0
KBR1 142251Z 25018KT 28/M01 A2986 RMK A01 T02841009  RH  015%=      5-min Rain = 0
KBR1 142252Z 24017KT 28/M01 A2986 RMK A01 T02821010  RH  015%=      5-min Rain = 0
KBR1 142253Z 23018KT 28/M01 A2986 RMK A01 T02821009  RH  015%=      5-min Rain = 0
KBR1 142254Z 23017KT 28/M01 A2986 RMK A01 T02811009  RH  015%=      5-min Rain = 0
KBR1 142255Z 23016KT 28/M01 A2986 RMK A01 T02811009  RH  015%=      5-min Rain = 0
KBR1 142256Z 23014KT 28/M01 A2986 RMK A01 T02811008  RH  015%=      5-min Rain = 0
KBR1 142257Z 23016KT 28/M01 A2986 RMK A01 T02811007  RH  015%=      5-min Rain = 0
KBR1 142258Z 24016KT 28/M01 A2986 RMK A01 T02811009  RH  015%=      5-min Rain = 0
KBR1 142259Z 24017KT 28/M01 A2986 RMK A01 T02811010  RH  015%=      5-min Rain = 0
KBR1 142300Z 24015KT 28/M01 A2986 RMK A01 T02801009  RH  015%=      5-min Rain = 0
KBR1 142301Z 24013KT 28/M01 A2986 RMK A01 T02801008  RH  015%=      5-min Rain = 0
KBR1 142302Z 25015KT 28/M01 A2986 RMK A01 T02801008  RH  015%=      5-min Rain = 0
KBR1 142303Z 25015KT 28/M01 A2986 RMK A01 T02801010  RH  015%=      5-min Rain = 0
KBR1 142304Z 25014KT 28/M01 A2986 RMK A01 T02801011  RH  015%=      5-min Rain = 0
KBR1 142305Z 24013KT 28/M01 A2986 RMK A01 T02791011  RH  015%=      5-min Rain = 0
KBR1 142306Z 24014KT 28/M01 A2986 RMK A01 T02791010  RH  015%=      5-min Rain = 0
KBR1 142307Z 23014KT 28/M01 A2986 RMK A01 T02791010  RH  015%=      5-min Rain = 0
KBR1 142308Z 23013KT 28/M01 A2986 RMK A01 T02791007  RH  015%=      5-min Rain = 0
KBR1 142309Z 23014KT 28/M01 A2986 RMK A01 T02791009  RH  015%=      5-min Rain = 0
KBR1 142310Z 24016KT 28/M01 A2986 RMK A01 T02781010  RH  015%=      5-min Rain = 0
KBR1 142311Z 24017KT 28/M01 A2986 RMK A01 T02781010  RH  015%=      5-min Rain = 0
KBR1 142312Z 24016KT 28/M01 A2986 RMK A01 T02771011  RH  015%=      5-min Rain = 0
KBR1 142313Z 23015KT 28/M01 A2986 RMK A01 T02771013  RH  015%=      5-min Rain = 0
KBR1 142314Z 23016KT 28/M01 A2986 RMK A01 T02761012  RH  015%=      5-min Rain = 0
KBR1 142315Z 23015KT 28/M01 A2986 RMK A01 T02761012  RH  015%=      5-min Rain = 0
KBR1 142316Z 23015KT 28/M01 A2986 RMK A01 T02761012  RH  015%=      5-min Rain = 0
KBR1 142317Z 22013KT 28/M01 A2986 RMK A01 T02761010  RH  015%=      5-min Rain = 0
KBR1 142318Z 22012KT 28/M01 A2986 RMK A01 T02751009  RH  016%=      5-min Rain = 0
KBR1 142319Z 22013KT 28/M01 A2986 RMK A01 T02751009  RH  016%=      5-min Rain = 0
KBR1 142320Z 22014KT 27/M01 A2986 RMK A01 T02741012  RH  015%=      5-min Rain = 0
KBR1 142321Z 22012KT 27/M01 A2986 RMK A01 T02741010  RH  015%=      5-min Rain = 0
KBR1 142322Z 22013KT 27/M01 A2986 RMK A01 T02741011  RH  015%=      5-min Rain = 0
KBR1 142323Z 22013KT 27/M01 A2986 RMK A01 T02741010  RH  016%=      5-min Rain = 0
KBR1 142324Z 23011KT 27/M01 A2986 RMK A01 T02731009  RH  016%=      5-min Rain = 0
KBR1 142325Z 24011KT 27/M01 A2986 RMK A01 T02731008  RH  016%=      5-min Rain = 0
KBR1 142326Z 24011KT 27/M01 A2986 RMK A01 T02721007  RH  016%=      5-min Rain = 0
KBR1 142327Z 23011KT 27/M01 A2986 RMK A01 T02721007  RH  016%=      5-min Rain = 0
KBR1 142328Z 23013KT 27/M01 A2986 RMK A01 T02721007  RH  016%=      5-min Rain = 0
KBR1 142329Z 24012KT 27/M01 A2986 RMK A01 T02721008  RH  016%=      5-min Rain = 0
KBR1 142330Z 24011KT 27/M01 A2986 RMK A01 T02711007  RH  016%=      5-min Rain = 0
KBR1 142331Z 24012KT 27/M01 A2986 RMK A01 T02701008  RH  016%=      5-min Rain = 0
KBR1 142332Z 24013KT 27/M01 A2986 RMK A01 T02691009  RH  016%=      5-min Rain = 0
KBR1 142333Z 24012KT 27/M01 A2987 RMK A01 T02691009  RH  016%=      5-min Rain = 0
KBR1 142334Z 24011KT 27/M01 A2987 RMK A01 T02681008  RH  016%=      5-min Rain = 0
KBR1 142335Z 24009KT 27/M01 A2987 RMK A01 T02671005  RH  017%=      5-min Rain = 0
KBR1 142336Z 24010KT 27/M01 A2987 RMK A01 T02661005  RH  017%=      5-min Rain = 0
KBR1 142337Z 24010KT 27/M01 A2987 RMK A01 T02651007  RH  017%=      5-min Rain = 0
KBR1 142338Z 24009KT 27/M01 A2987 RMK A01 T02651006  RH  017%=      5-min Rain = 0
KBR1 142339Z 24009KT 26/M01 A2987 RMK A01 T02641005  RH  017%=      5-min Rain = 0
KBR1 142340Z 24010KT 26/M01 A2987 RMK A01 T02641007  RH  017%=      5-min Rain = 0
KBR1 142341Z 24009KT 26/M01 A2987 RMK A01 T02641006  RH  017%=      5-min Rain = 0
KBR1 142342Z 24009KT 26/M01 A2987 RMK A01 T02631006  RH  017%=      5-min Rain = 0
KBR1 142343Z 24009KT 26/M01 A2987 RMK A01 T02621006  RH  017%=      5-min Rain = 0
KBR1 142344Z 24009KT 26/M01 A2987 RMK A01 T02611006  RH  017%=      5-min Rain = 0
KBR1 142345Z 24010KT 26/M01 A2987 RMK A01 T02611006  RH  017%=      5-min Rain = 0
KBR1 142346Z 24011KT 26/M01 A2987 RMK A01 T02611006  RH  017%=      5-min Rain = 0
KBR1 142347Z 24010KT 26/M01 A2987 RMK A01 T02601006  RH  017%=      5-min Rain = 0
KBR1 142348Z 23009KT 26/M01 A2987 RMK A01 T02591005  RH  018%=      5-min Rain = 0
KBR1 142349Z 23009KT 26/M01 A2987 RMK A01 T02581005  RH  018%=      5-min Rain = 0
KBR1 142350Z 23008KT 26/M01 A2987 RMK A01 T02571005  RH  018%=      5-min Rain = 0
KBR1 142351Z 24008KT 26/M00 A2987 RMK A01 T02561003  RH  018%=      5-min Rain = 0
KBR1 142352Z 24008KT 26/M00 A2987 RMK A01 T02551002  RH  019%=      5-min Rain = 0
KBR1 142353Z 24008KT 25/M00 A2987 RMK A01 T02531003  RH  019%=      5-min Rain = 0
KBR1 142354Z 23007KT 25/M00 A2987 RMK A01 T02521001  RH  019%=      5-min Rain = 0
KBR1 142355Z 23007KT 25/M00 A2987 RMK A01 T02501002  RH  019%=      5-min Rain = 0
KBR1 142356Z 23007KT 25/M00 A2987 RMK A01 T02491001  RH  019%=      5-min Rain = 0
KBR1 142357Z 23007KT 25/M00 A2987 RMK A01 T02471001  RH  020%=      5-min Rain = 0
KBR1 142358Z 23007KT 25/00 A2987 RMK A01 T024600-0  RH  020%=      5-min Rain = 0
KBR1 142359Z 23007KT 24/00 A2987 RMK A01 T024400-0  RH  020%=      5-min Rain = 0
KBR1 150000Z 23007KT 24/00 A2987 RMK A01 T02430001  RH  020%=      5-min Rain = 0
KBR1 150001Z 23007KT 24/00 A2987 RMK A01 T02410000  RH  020%=      5-min Rain = 0
KBR1 150002Z 24006KT 24/00 A2987 RMK A01 T02400000  RH  021%=      5-min Rain = 0
KBR1 150003Z 24007KT 24/00 A2987 RMK A01 T02390001  RH  021%=      5-min Rain = 0
KBR1 150004Z 23007KT 24/00 A2987 RMK A01 T02380000  RH  021%=      5-min Rain = 0
KBR1 150005Z 22005KT 24/00 A2987 RMK A01 T02360001  RH  021%=      5-min Rain = 0
KBR1 150006Z 22006KT 23/00 A2987 RMK A01 T02330001  RH  022%=      5-min Rain = 0
KBR1 150007Z 23006KT 23/00 A2987 RMK A01 T02310001  RH  022%=      5-min Rain = 0
KBR1 150008Z 23006KT 23/00 A2987 RMK A01 T02300000  RH  022%=      5-min Rain = 0
KBR1 150009Z 23006KT 23/00 A2987 RMK A01 T022900-0  RH  022%=      5-min Rain = 0
KBR1 150010Z 23006KT 23/00 A2987 RMK A01 T02280001  RH  022%=      5-min Rain = 0
KBR1 150011Z 22006KT 23/00 A2987 RMK A01 T02260000  RH  022%=      5-min Rain = 0
KBR1 150012Z 23006KT 23/00 A2987 RMK A01 T02250000  RH  023%=      5-min Rain = 0
KBR1 150013Z 23006KT 22/M00 A2987 RMK A01 T02241001  RH  022%=      5-min Rain = 0
KBR1 150014Z 23006KT 22/00 A2987 RMK A01 T02240000  RH  023%=      5-min Rain = 0
KBR1 150015Z 23005KT 22/00 A2987 RMK A01 T022300-0  RH  023%=      5-min Rain = 0
KBR1 150016Z 23005KT 22/M00 A2987 RMK A01 T02221001  RH  023%=      5-min Rain = 0
KBR1 150017Z 22004KT 22/M00 A2987 RMK A01 T02211001  RH  023%=      5-min Rain = 0
KBR1 150018Z 22004KT 22/M00 A2987 RMK A01 T02211002  RH  023%=      5-min Rain = 0
KBR1 150019Z 22004KT 22/M00 A2987 RMK A01 T02211001  RH  023%=      5-min Rain = 0
KBR1 150020Z 21004KT 22/M00 A2987 RMK A01 T02211001  RH  023%=      5-min Rain = 0
KBR1 150021Z 21003KT 22/M00 A2987 RMK A01 T02201001  RH  023%=      5-min Rain = 0
KBR1 150022Z 21003KT 22/M00 A2987 RMK A01 T02201002  RH  023%=      5-min Rain = 0
KBR1 150023Z 21003KT 22/M00 A2987 RMK A01 T02201002  RH  023%=      5-min Rain = 0
KBR1 150024Z 21003KT 22/M00 A2987 RMK A01 T02191002  RH  023%=      5-min Rain = 0
KBR1 150025Z 21003KT 22/M00 A2987 RMK A01 T02191002  RH  023%=      5-min Rain = 0
KBR1 150026Z 21003KT 22/M00 A2987 RMK A01 T02191002  RH  023%=      5-min Rain = 0
KBR1 150027Z 21003KT 22/M00 A2987 RMK A01 T02181002  RH  023%=      5-min Rain = 0
KBR1 150028Z 21003KT 22/M00 A2987 RMK A01 T02181003  RH  023%=      5-min Rain = 0
KBR1 150029Z 22003KT 22/M00 A2987 RMK A01 T02171003  RH  023%=      5-min Rain = 0
KBR1 150030Z 22003KT 22/M00 A2987 RMK A01 T02171004  RH  023%=      5-min Rain = 0
KBR1 150031Z 21003KT 22/M00 A2987 RMK A01 T02181004  RH  023%=      5-min Rain = 0
KBR1 150032Z 21003KT 22/M00 A2988 RMK A01 T02181003  RH  023%=      5-min Rain = 0
KBR1 150033Z 21003KT 22/M00 A2988 RMK A01 T02171004  RH  023%=      5-min Rain = 0
KBR1 150034Z 21003KT 22/M00 A2988 RMK A01 T02171004  RH  023%=      5-min Rain = 0
KBR1 150035Z 21003KT 22/M00 A2988 RMK A01 T02171004  RH  023%=      5-min Rain = 0
KBR1 150036Z 21003KT 22/M00 A2988 RMK A01 T02171004  RH  023%=      5-min Rain = 0
KBR1 150037Z 21002KT 22/M00 A2988 RMK A01 T02161004  RH  023%=      5-min Rain = 0
KBR1 150038Z 21003KT 21/M00 A2988 RMK A01 T02141004  RH  023%=      5-min Rain = 0
KBR1 150039Z 21003KT 21/M01 A2988 RMK A01 T02131005  RH  023%=      5-min Rain = 0
KBR1 150040Z 21003KT 21/M01 A2988 RMK A01 T02131005  RH  023%=      5-min Rain = 0
KBR1 150041Z 21003KT 21/M01 A2988 RMK A01 T02131005  RH  023%=      5-min Rain = 0
KBR1 150042Z 21003KT 21/M01 A2988 RMK A01 T02131005  RH  023%=      5-min Rain = 0
KBR1 150043Z 21002KT 21/M01 A2988 RMK A01 T02131005  RH  023%=      5-min Rain = 0
KBR1 150044Z 21002KT 21/M01 A2988 RMK A01 T02131005  RH  023%=      5-min Rain = 0
KBR1 150045Z 21002KT 21/M01 A2988 RMK A01 T02131005  RH  023%=      5-min Rain = 0
KBR1 150046Z 20002KT 21/M01 A2988 RMK A01 T02131005  RH  023%=      5-min Rain = 0
KBR1 150047Z 20002KT 21/M01 A2988 RMK A01 T02131005  RH  023%=      5-min Rain = 0
KBR1 150048Z 20002KT 21/M01 A2988 RMK A01 T02131005  RH  023%=      5-min Rain = 0
KBR1 150049Z 21002KT 21/M01 A2988 RMK A01 T02121005  RH  023%=      5-min Rain = 0
KBR1 150050Z 20003KT 21/M00 A2988 RMK A01 T02121004  RH  024%=      5-min Rain = 0
KBR1 150051Z 21003KT 21/M01 A2988 RMK A01 T02111006  RH  023%=      5-min Rain = 0
KBR1 150052Z 21003KT 21/M01 A2988 RMK A01 T02121007  RH  023%=      5-min Rain = 0
KBR1 150053Z 20003KT 21/M01 A2988 RMK A01 T02121007  RH  023%=      5-min Rain = 0
KBR1 150054Z 20003KT 21/M01 A2988 RMK A01 T02121005  RH  023%=      5-min Rain = 0
KBR1 150055Z 20003KT 21/M00 A2988 RMK A01 T02111004  RH  024%=      5-min Rain = 0
KBR1 150056Z 21003KT 21/M01 A2988 RMK A01 T02101005  RH  024%=      5-min Rain = 0
KBR1 150057Z 20003KT 21/M01 A2988 RMK A01 T02091006  RH  024%=      5-min Rain = 0
KBR1 150058Z 21003KT 21/M01 A2988 RMK A01 T02091008  RH  023%=      5-min Rain = 0
KBR1 150059Z 21003KT 21/M01 A2988 RMK A01 T02111008  RH  023%=      5-min Rain = 0
KBR1 150100Z 21004KT 21/M01 A2988 RMK A01 T02131008  RH  023%=      5-min Rain = 0
KBR1 150101Z 21004KT 22/M01 A2988 RMK A01 T02151008  RH  023%=      5-min Rain = 0
KBR1 150102Z 21004KT 22/M01 A2988 RMK A01 T02161007  RH  023%=      5-min Rain = 0
KBR1 150103Z 21004KT 22/M01 A2988 RMK A01 T02161006  RH  023%=      5-min Rain = 0
KBR1 150104Z 20004KT 22/M01 A2988 RMK A01 T02151006  RH  023%=      5-min Rain = 0
KBR1 150105Z 20005KT 21/M01 A2988 RMK A01 T02141005  RH  023%=      5-min Rain = 0
KBR1 150106Z 21005KT 21/M00 A2988 RMK A01 T02121004  RH  024%=      5-min Rain = 0
KBR1 150107Z 21005KT 21/M00 A2988 RMK A01 T02101004  RH  024%=      5-min Rain = 0
KBR1 150108Z 20005KT 21/M00 A2988 RMK A01 T02081003  RH  024%=      5-min Rain = 0
KBR1 150109Z 20005KT 21/M00 A2988 RMK A01 T02061004  RH  025%=      5-min Rain = 0
KBR1 150110Z 20006KT 20/M00 A2988 RMK A01 T02041002  RH  025%=      5-min Rain = 0
KBR1 150111Z 20006KT 20/M00 A2988 RMK A01 T02021002  RH  025%=      5-min Rain = 0
KBR1 150112Z 20006KT 20/M00 A2988 RMK A01 T02021002  RH  025%=      5-min Rain = 0
KBR1 150113Z 20006KT 20/M00 A2988 RMK A01 T02021001  RH  026%=      5-min Rain = 0
KBR1 150114Z 20007KT 20/M00 A2988 RMK A01 T02021001  RH  026%=      5-min Rain = 0
KBR1 150115Z 20006KT 20/00 A2988 RMK A01 T020200-0  RH  026%=      5-min Rain = 0
KBR1 150116Z 20006KT 20/00 A2988 RMK A01 T02000001  RH  026%=      5-min Rain = 0
KBR1 150117Z 20007KT 20/00 A2988 RMK A01 T019900-0  RH  026%=      5-min Rain = 0
KBR1 150118Z 21007KT 20/00 A2988 RMK A01 T01970001  RH  027%=      5-min Rain = 0
KBR1 150119Z 20006KT 20/00 A2988 RMK A01 T01960001  RH  027%=      5-min Rain = 0
KBR1 150120Z 21007KT 20/00 A2988 RMK A01 T01950002  RH  027%=      5-min Rain = 0
KBR1 150121Z 21006KT 19/00 A2989 RMK A01 T01940002  RH  028%=      5-min Rain = 0
KBR1 150122Z 21007KT 19/00 A2989 RMK A01 T01930001  RH  028%=      5-min Rain = 0
KBR1 150123Z 21007KT 19/00 A2989 RMK A01 T01930001  RH  028%=      5-min Rain = 0
KBR1 150124Z 21007KT 19/00 A2989 RMK A01 T01940002  RH  028%=      5-min Rain = 0
KBR1 150125Z 21007KT 19/00 A2989 RMK A01 T01940002  RH  028%=      5-min Rain = 0
KBR1 150126Z 21008KT 19/00 A2989 RMK A01 T01920002  RH  028%=      5-min Rain = 0
KBR1 150127Z 21007KT 19/00 A2989 RMK A01 T01910002  RH  028%=      5-min Rain = 0
KBR1 150128Z 22007KT 19/00 A2989 RMK A01 T01890001  RH  028%=      5-min Rain = 0
KBR1 150129Z 22007KT 19/00 A2989 RMK A01 T01870001  RH  029%=      5-min Rain = 0
KBR1 150130Z 22006KT 19/00 A2989 RMK A01 T01850002  RH  029%=      5-min Rain = 0
KBR1 150131Z 23006KT 18/00 A2989 RMK A01 T01830003  RH  030%=      5-min Rain = 0
KBR1 150132Z 23006KT 18/00 A2989 RMK A01 T01800001  RH  030%=      5-min Rain = 0
KBR1 150133Z 25005KT 18/00 A2989 RMK A01 T01790001  RH  030%=      5-min Rain = 0
KBR1 150134Z 26005KT 18/00 A2989 RMK A01 T01780002  RH  030%=      5-min Rain = 0
KBR1 150135Z 27005KT 18/00 A2989 RMK A01 T01770002  RH  031%=      5-min Rain = 0
KBR1 150136Z 27004KT 18/00 A2989 RMK A01 T01750001  RH  031%=      5-min Rain = 0
KBR1 150137Z 28004KT 18/00 A2989 RMK A01 T01750002  RH  031%=      5-min Rain = 0
KBR1 150138Z 27005KT 17/00 A2989 RMK A01 T01740003  RH  032%=      5-min Rain = 0
KBR1 150139Z 26005KT 17/00 A2989 RMK A01 T01730004  RH  032%=      5-min Rain = 0
KBR1 150140Z 26005KT 17/00 A2989 RMK A01 T01720004  RH  032%=      5-min Rain = 0
KBR1 150141Z 25005KT 17/00 A2989 RMK A01 T01710004  RH  032%=      5-min Rain = 0
KBR1 150142Z 24005KT 17/00 A2989 RMK A01 T01710004  RH  032%=      5-min Rain = 0
KBR1 150143Z 23005KT 17/00 A2989 RMK A01 T01700003  RH  032%=      5-min Rain = 0
KBR1 150144Z 23005KT 17/00 A2989 RMK A01 T01700002  RH  032%=      5-min Rain = 0
KBR1 150145Z 23005KT 17/00 A2989 RMK A01 T01710002  RH  032%=      5-min Rain = 0
KBR1 150146Z 23005KT 17/00 A2989 RMK A01 T01720002  RH  032%=      5-min Rain = 0
KBR1 150147Z 23005KT 17/00 A2989 RMK A01 T01730002  RH  031%=      5-min Rain = 0
KBR1 150148Z 22005KT 17/00 A2989 RMK A01 T01740001  RH  031%=      5-min Rain = 0
KBR1 150149Z 22005KT 17/00 A2989 RMK A01 T01740001  RH  031%=      5-min Rain = 0
KBR1 150150Z 22005KT 17/00 A2989 RMK A01 T01740001  RH  031%=      5-min Rain = 0
KBR1 150151Z 22006KT 17/00 A2989 RMK A01 T01740001  RH  031%=      5-min Rain = 0
KBR1 150152Z 22006KT 17/00 A2989 RMK A01 T01740001  RH  031%=      5-min Rain = 0
KBR1 150153Z 22006KT 17/00 A2989 RMK A01 T01740001  RH  031%=      5-min Rain = 0
KBR1 150154Z 22006KT 17/00 A2989 RMK A01 T01740001  RH  031%=      5-min Rain = 0
KBR1 150155Z 22006KT 17/00 A2989 RMK A01 T01740001  RH  031%=      5-min Rain = 0
KBR1 150156Z 22006KT 17/00 A2989 RMK A01 T01740001  RH  031%=      5-min Rain = 0
KBR1 150157Z 22007KT 17/00 A299 RMK A01 T01720002  RH  031%=      5-min Rain = 0
KBR1 150158Z 22007KT 17/00 A299 RMK A01 T01700002  RH  032%=      5-min Rain = 0
KBR1 150159Z 21007KT 17/00 A2989 RMK A01 T01700003  RH  032%=      5-min Rain = 0
KBR1 150200Z 21007KT 17/00 A2989 RMK A01 T01690003  RH  033%=      5-min Rain = 0
KBR1 150201Z 21007KT 17/00 A299 RMK A01 T01670004  RH  033%=      5-min Rain = 0
KBR1 150202Z 22007KT 17/00 A2989 RMK A01 T01670004  RH  033%=      5-min Rain = 0
KBR1 150203Z 22007KT 17/00 A2989 RMK A01 T01660004  RH  033%=      5-min Rain = 0
KBR1 150204Z 21007KT 17/00 A2989 RMK A01 T01660004  RH  033%=      5-min Rain = 0
KBR1 150205Z 21007KT 17/00 A2989 RMK A01 T01660004  RH  033%=      5-min Rain = 0
KBR1 150206Z 21008KT 17/00 A2989 RMK A01 T01660004  RH  033%=      5-min Rain = 0
KBR1 150207Z 21008KT 17/01 A2989 RMK A01 T01650005  RH  034%=      5-min Rain = 0
KBR1 150208Z 21009KT 17/01 A2989 RMK A01 T01650005  RH  034%=      5-min Rain = 0
KBR1 150209Z 21009KT 17/01 A299 RMK A01 T01650006  RH  034%=      5-min Rain = 0
KBR1 150210Z 21009KT 17/01 A299 RMK A01 T01650006  RH  034%=      5-min Rain = 0
KBR1 150211Z 21010KT 17/01 A299 RMK A01 T01660006  RH  034%=      5-min Rain = 0
KBR1 150212Z 21010KT 17/01 A299 RMK A01 T01670006  RH  034%=      5-min Rain = 0
KBR1 150213Z 21010KT 17/01 A299 RMK A01 T01680006  RH  033%=      5-min Rain = 0
KBR1 150214Z 21010KT 17/01 A299 RMK A01 T01690006  RH  033%=      5-min Rain = 0
KBR1 150215Z 20010KT 17/01 A299 RMK A01 T01700006  RH  033%=      5-min Rain = 0
KBR1 150216Z 20010KT 17/01 A299 RMK A01 T01700006  RH  033%=      5-min Rain = 0
KBR1 150217Z 20010KT 17/01 A299 RMK A01 T01710006  RH  033%=      5-min Rain = 0
KBR1 150218Z 20011KT 17/01 A299 RMK A01 T01710006  RH  033%=      5-min Rain = 0
KBR1 150219Z 20011KT 17/01 A299 RMK A01 T01710006  RH  033%=      5-min Rain = 0
KBR1 150220Z 20011KT 17/01 A299 RMK A01 T01710006  RH  033%=      5-min Rain = 0
KBR1 150221Z 20011KT 17/01 A299 RMK A01 T01720006  RH  033%=      5-min Rain = 0
KBR1 150222Z 21011KT 17/01 A299 RMK A01 T01730006  RH  032%=      5-min Rain = 0
KBR1 150223Z 21010KT 18/01 A299 RMK A01 T01750007  RH  032%=      5-min Rain = 0
KBR1 150224Z 21008KT 17/01 A299 RMK A01 T01740007  RH  032%=      5-min Rain = 0
KBR1 150225Z 21007KT 17/01 A299 RMK A01 T01720007  RH  033%=      5-min Rain = 0
KBR1 150226Z 21007KT 17/01 A299 RMK A01 T01690007  RH  034%=      5-min Rain = 0
KBR1 150227Z 21007KT 17/01 A299 RMK A01 T01660007  RH  034%=      5-min Rain = 0
KBR1 150228Z 21007KT 16/01 A299 RMK A01 T01640007  RH  035%=      5-min Rain = 0
KBR1 150229Z 21006KT 16/01 A299 RMK A01 T01630008  RH  035%=      5-min Rain = 0
KBR1 150230Z 21006KT 16/01 A299 RMK A01 T01600008  RH  035%=      5-min Rain = 0
KBR1 150231Z 21006KT 16/01 A299 RMK A01 T01590008  RH  036%=      5-min Rain = 0
KBR1 150232Z 20006KT 16/01 A299 RMK A01 T01570007  RH  036%=      5-min Rain = 0
KBR1 150233Z 20006KT 16/01 A299 RMK A01 T01560008  RH  036%=      5-min Rain = 0
KBR1 150234Z 21006KT 16/01 A299 RMK A01 T01550008  RH  037%=      5-min Rain = 0
KBR1 150235Z 21005KT 15/01 A299 RMK A01 T01530008  RH  037%=      5-min Rain = 0
KBR1 150236Z 20006KT 15/01 A299 RMK A01 T01520007  RH  037%=      5-min Rain = 0
KBR1 150237Z 20006KT 15/01 A299 RMK A01 T01520007  RH  037%=      5-min Rain = 0
KBR1 150238Z 21006KT 15/01 A299 RMK A01 T01510008  RH  038%=      5-min Rain = 0
KBR1 150239Z 21006KT 15/01 A2991 RMK A01 T01500008  RH  038%=      5-min Rain = 0
KBR1 150240Z 22006KT 15/01 A2991 RMK A01 T01500008  RH  038%=      5-min Rain = 0
KBR1 150241Z 22006KT 15/01 A2991 RMK A01 T01500007  RH  038%=      5-min Rain = 0
KBR1 150242Z 21007KT 15/01 A2991 RMK A01 T01500007  RH  038%=      5-min Rain = 0
KBR1 150243Z 20008KT 15/01 A299 RMK A01 T01500007  RH  038%=      5-min Rain = 0
KBR1 150244Z 20008KT 15/01 A299 RMK A01 T01510008  RH  038%=      5-min Rain = 0
KBR1 150245Z 21007KT 15/01 A2991 RMK A01 T01510008  RH  038%=      5-min Rain = 0
KBR1 150246Z 22006KT 15/01 A2991 RMK A01 T01500008  RH  038%=      5-min Rain = 0
KBR1 150247Z 22005KT 15/01 A2991 RMK A01 T01480010  RH  039%=      5-min Rain = 0
KBR1 150248Z 24005KT 15/01 A2991 RMK A01 T01460010  RH  040%=      5-min Rain = 0
KBR1 150249Z 22007KT 15/01 A2991 RMK A01 T01460008  RH  039%=      5-min Rain = 0
KBR1 150250Z 21007KT 15/01 A2991 RMK A01 T01460008  RH  039%=      5-min Rain = 0
KBR1 150251Z 21008KT 15/01 A2991 RMK A01 T01470008  RH  039%=      5-min Rain = 0
KBR1 150252Z 20007KT 15/01 A2991 RMK A01 T01470009  RH  039%=      5-min Rain = 0
KBR1 150253Z 20008KT 15/01 A2991 RMK A01 T01480010  RH  039%=      5-min Rain = 0
KBR1 150254Z 21008KT 15/01 A2991 RMK A01 T01480011  RH  039%=      5-min Rain = 0
KBR1 150255Z 20008KT 15/01 A2991 RMK A01 T01480011  RH  039%=      5-min Rain = 0
KBR1 150256Z 20009KT 15/01 A2991 RMK A01 T01480011  RH  039%=      5-min Rain = 0
KBR1 150257Z 20009KT 15/01 A2991 RMK A01 T01500012  RH  039%=      5-min Rain = 0
KBR1 150258Z 21008KT 15/01 A2991 RMK A01 T01500012  RH  039%=      5-min Rain = 0
KBR1 150259Z 21007KT 15/01 A2991 RMK A01 T01500012  RH  039%=      5-min Rain = 0
KBR1 150300Z 22007KT 15/01 A2991 RMK A01 T01490012  RH  040%=      5-min Rain = 0
KBR1 150301Z 21007KT 15/01 A2991 RMK A01 T01470012  RH  040%=      5-min Rain = 0
KBR1 150302Z 21008KT 15/01 A2991 RMK A01 T01450012  RH  040%=      5-min Rain = 0
KBR1 150303Z 21010KT 15/01 A2991 RMK A01 T01450012  RH  040%=      5-min Rain = 0
KBR1 150304Z 21010KT 15/01 A2991 RMK A01 T01460014  RH  041%=      5-min Rain = 0
KBR1 150305Z 21009KT 15/01 A2991 RMK A01 T01470014  RH  040%=      5-min Rain = 0
KBR1 150306Z 20009KT 15/01 A2991 RMK A01 T01470014  RH  040%=      5-min Rain = 0
KBR1 150307Z 21008KT 15/01 A2991 RMK A01 T01470014  RH  040%=      5-min Rain = 0
KBR1 150308Z 21008KT 15/02 A2991 RMK A01 T01480015  RH  040%=      5-min Rain = 0
KBR1 150309Z 21008KT 15/02 A2991 RMK A01 T01490016  RH  040%=      5-min Rain = 0
KBR1 150310Z 20008KT 15/02 A2991 RMK A01 T01490016  RH  041%=      5-min Rain = 0
KBR1 150311Z 21009KT 15/02 A2991 RMK A01 T01500018  RH  041%=      5-min Rain = 0
KBR1 150312Z 22009KT 15/02 A2991 RMK A01 T01520020  RH  041%=      5-min Rain = 0
KBR1 150313Z 21009KT 15/02 A2991 RMK A01 T01530021  RH  041%=      5-min Rain = 0
KBR1 150314Z 21008KT 15/02 A2991 RMK A01 T01540022  RH  041%=      5-min Rain = 0
KBR1 150315Z 21008KT 15/02 A2992 RMK A01 T01540023  RH  041%=      5-min Rain = 0
KBR1 150316Z 21008KT 16/02 A2992 RMK A01 T01550023  RH  041%=      5-min Rain = 0
KBR1 150317Z 22008KT 16/02 A2992 RMK A01 T01550023  RH  041%=      5-min Rain = 0
KBR1 150318Z 21008KT 15/02 A2992 RMK A01 T01540023  RH  041%=      5-min Rain = 0
KBR1 150319Z 21008KT 15/02 A2992 RMK A01 T01540023  RH  041%=      5-min Rain = 0
KBR1 150320Z 21007KT 15/02 A2992 RMK A01 T01540023  RH  041%=      5-min Rain = 0
KBR1 150321Z 22007KT 15/02 A2992 RMK A01 T01540023  RH  041%=      5-min Rain = 0
KBR1 150322Z 22007KT 15/02 A2992 RMK A01 T01540023  RH  041%=      5-min Rain = 0
KBR1 150323Z 21007KT 15/02 A2992 RMK A01 T01540023  RH  041%=      5-min Rain = 0
KBR1 150324Z 22006KT 15/02 A2992 RMK A01 T01530023  RH  042%=      5-min Rain = 0
KBR1 150325Z 22006KT 15/02 A2992 RMK A01 T01520023  RH  042%=      5-min Rain = 0
KBR1 150326Z 21006KT 15/02 A2992 RMK A01 T01510023  RH  042%=      5-min Rain = 0
KBR1 150327Z 20006KT 15/02 A2992 RMK A01 T01500023  RH  042%=      5-min Rain = 0
KBR1 150328Z 21006KT 15/02 A2992 RMK A01 T01500024  RH  043%=      5-min Rain = 0
KBR1 150329Z 21006KT 15/02 A2992 RMK A01 T01490024  RH  043%=      5-min Rain = 0
KBR1 150330Z 21006KT 15/02 A2992 RMK A01 T01500024  RH  043%=      5-min Rain = 0
KBR1 150331Z 21006KT 15/02 A2992 RMK A01 T01500024  RH  043%=      5-min Rain = 0
KBR1 150332Z 21007KT 15/02 A2992 RMK A01 T01500024  RH  043%=      5-min Rain = 0
KBR1 150333Z 22006KT 15/02 A2992 RMK A01 T01500024  RH  042%=      5-min Rain = 0
KBR1 150334Z 23005KT 15/02 A2992 RMK A01 T01500024  RH  043%=      5-min Rain = 0
KBR1 150335Z 23005KT 15/02 A2992 RMK A01 T01500024  RH  043%=      5-min Rain = 0
KBR1 150336Z 23005KT 15/02 A2992 RMK A01 T01490023  RH  042%=      5-min Rain = 0
KBR1 150337Z 23005KT 15/02 A2992 RMK A01 T01510024  RH  042%=      5-min Rain = 0
KBR1 150338Z 23005KT 15/02 A2992 RMK A01 T01510023  RH  042%=      5-min Rain = 0
KBR1 150339Z 22006KT 15/02 A2993 RMK A01 T01530023  RH  042%=      5-min Rain = 0
KBR1 150340Z 23005KT 15/02 A2993 RMK A01 T01530024  RH  042%=      5-min Rain = 0
KBR1 150341Z 23005KT 15/02 A2993 RMK A01 T01540023  RH  041%=      5-min Rain = 0
KBR1 150342Z 22005KT 16/02 A2993 RMK A01 T01550024  RH  041%=      5-min Rain = 0
KBR1 150343Z 22005KT 15/02 A2993 RMK A01 T01540023  RH  041%=      5-min Rain = 0
KBR1 150344Z 22005KT 16/02 A2993 RMK A01 T01550023  RH  041%=      5-min Rain = 0
KBR1 150345Z 23005KT 16/02 A2993 RMK A01 T01550023  RH  041%=      5-min Rain = 0
KBR1 150346Z 23005KT 16/02 A2993 RMK A01 T01550023  RH  041%=      5-min Rain = 0
KBR1 150347Z 23005KT 16/02 A2993 RMK A01 T01550023  RH  041%=      5-min Rain = 0
KBR1 150348Z 23005KT 16/02 A2993 RMK A01 T01560023  RH  041%=      5-min Rain = 0
KBR1 150349Z 23006KT 16/02 A2993 RMK A01 T01560023  RH  041%=      5-min Rain = 0
KBR1 150350Z 22006KT 16/02 A2993 RMK A01 T01560023  RH  041%=      5-min Rain = 0
KBR1 150351Z 22006KT 16/02 A2993 RMK A01 T01550022  RH  041%=      5-min Rain = 0
KBR1 150352Z 22006KT 16/02 A2993 RMK A01 T01550022  RH  041%=      5-min Rain = 0
KBR1 150353Z 21006KT 16/02 A2993 RMK A01 T01550022  RH  041%=      5-min Rain = 0
KBR1 150354Z 21006KT 15/02 A2993 RMK A01 T01530022  RH  041%=      5-min Rain = 0
KBR1 150355Z 22006KT 15/02 A2993 RMK A01 T01520022  RH  042%=      5-min Rain = 0
KBR1 150356Z 22006KT 15/02 A2993 RMK A01 T01500023  RH  042%=      5-min Rain = 0
KBR1 150357Z 21007KT 15/02 A2993 RMK A01 T01480023  RH  043%=      5-min Rain = 0
KBR1 150358Z 21007KT 15/02 A2993 RMK A01 T01480023  RH  043%=      5-min Rain = 0
KBR1 150359Z 21007KT 15/02 A2993 RMK A01 T01470023  RH  043%=      5-min Rain = 0
KBR1 150400Z 21007KT 15/02 A2993 RMK A01 T01460023  RH  043%=      5-min Rain = 0
KBR1 150401Z 21008KT 15/02 A2993 RMK A01 T01460023  RH  044%=      5-min Rain = 0
KBR1 150402Z 21006KT 15/02 A2993 RMK A01 T01460024  RH  044%=      5-min Rain = 0
KBR1 150403Z 21006KT 15/02 A2993 RMK A01 T01450023  RH  044%=      5-min Rain = 0
KBR1 150404Z 21006KT 14/02 A2993 RMK A01 T01440023  RH  044%=      5-min Rain = 0
KBR1 150405Z 21006KT 14/02 A2993 RMK A01 T01430023  RH  044%=      5-min Rain = 0
KBR1 150406Z 21005KT 14/02 A2993 RMK A01 T01430023  RH  044%=      5-min Rain = 0
KBR1 150407Z 21005KT 14/02 A2993 RMK A01 T01420023  RH  045%=      5-min Rain = 0
KBR1 150408Z 20003KT 14/02 A2993 RMK A01 T01400023  RH  045%=      5-min Rain = 0
KBR1 150409Z 20003KT 14/02 A2993 RMK A01 T01380022  RH  045%=      5-min Rain = 0
KBR1 150410Z 20003KT 14/02 A2993 RMK A01 T01370023  RH  046%=      5-min Rain = 0
KBR1 150411Z 20002KT 14/02 A2993 RMK A01 T01370023  RH  046%=      5-min Rain = 0
KBR1 150412Z 21002KT 14/02 A2993 RMK A01 T01370024  RH  046%=      5-min Rain = 0
KBR1 150413Z 21002KT 14/02 A2993 RMK A01 T01360024  RH  047%=      5-min Rain = 0
KBR1 150414Z 20001KT 13/03 A2993 RMK A01 T01340025  RH  047%=      5-min Rain = 0
KBR1 150415Z 20001KT 13/03 A2993 RMK A01 T01320025  RH  048%=      5-min Rain = 0
KBR1 150416Z 20001KT 13/03 A2993 RMK A01 T01320025  RH  048%=      5-min Rain = 0
KBR1 150417Z 20001KT 13/02 A2993 RMK A01 T01330023  RH  047%=      5-min Rain = 0
KBR1 150418Z 20001KT 13/02 A2993 RMK A01 T01340024  RH  047%=      5-min Rain = 0
KBR1 150419Z 21001KT 14/02 A2993 RMK A01 T01360024  RH  047%=      5-min Rain = 0
KBR1 150420Z 22001KT 14/02 A2993 RMK A01 T01370023  RH  046%=      5-min Rain = 0
KBR1 150421Z 22002KT 14/02 A2993 RMK A01 T01380023  RH  046%=      5-min Rain = 0
KBR1 150422Z 23003KT 14/02 A2993 RMK A01 T01380022  RH  045%=      5-min Rain = 0
KBR1 150423Z 22003KT 14/02 A2993 RMK A01 T01390022  RH  045%=      5-min Rain = 0
KBR1 150424Z 23003KT 14/02 A2993 RMK A01 T01400022  RH  045%=      5-min Rain = 0
KBR1 150425Z 23003KT 14/02 A2993 RMK A01 T01420023  RH  045%=      5-min Rain = 0
KBR1 150426Z 23004KT 14/02 A2993 RMK A01 T01430023  RH  044%=      5-min Rain = 0
KBR1 150427Z 23004KT 14/02 A2993 RMK A01 T01440023  RH  044%=      5-min Rain = 0
KBR1 150428Z 22004KT 15/02 A2993 RMK A01 T01450023  RH  044%=      5-min Rain = 0
KBR1 150429Z 22005KT 15/02 A2993 RMK A01 T01450023  RH  044%=      5-min Rain = 0
KBR1 150430Z 22005KT 15/02 A2993 RMK A01 T01450023  RH  044%=      5-min Rain = 0
KBR1 150431Z 23005KT 14/02 A2993 RMK A01 T01440023  RH  044%=      5-min Rain = 0
KBR1 150432Z 22005KT 14/02 A2993 RMK A01 T01420023  RH  044%=      5-min Rain = 0
KBR1 150433Z 22006KT 14/02 A2993 RMK A01 T01410022  RH  045%=      5-min Rain = 0
KBR1 150434Z 22006KT 14/02 A2993 RMK A01 T01380022  RH  045%=      5-min Rain = 0
KBR1 150435Z 22006KT 13/02 A2993 RMK A01 T01340022  RH  046%=      5-min Rain = 0
KBR1 150436Z 22006KT 13/02 A2993 RMK A01 T01310022  RH  047%=      5-min Rain = 0
KBR1 150437Z 22007KT 13/02 A2993 RMK A01 T01290022  RH  048%=      5-min Rain = 0
KBR1 150438Z 22007KT 13/02 A2993 RMK A01 T01270022  RH  049%=      5-min Rain = 0
KBR1 150439Z 22007KT 13/02 A2993 RMK A01 T01260023  RH  049%=      5-min Rain = 0
KBR1 150440Z 22007KT 13/02 A2993 RMK A01 T01250023  RH  050%=      5-min Rain = 0
KBR1 150441Z 22007KT 12/02 A2993 RMK A01 T01240024  RH  050%=      5-min Rain = 0
KBR1 150442Z 22007KT 12/02 A2993 RMK A01 T01220023  RH  051%=      5-min Rain = 0
KBR1 150443Z 22007KT 12/02 A2993 RMK A01 T01210023  RH  051%=      5-min Rain = 0
KBR1 150444Z 22007KT 12/02 A2993 RMK A01 T01200023  RH  051%=      5-min Rain = 0
KBR1 150445Z 23007KT 12/02 A2993 RMK A01 T01200023  RH  052%=      5-min Rain = 0
KBR1 150446Z 23006KT 12/02 A2993 RMK A01 T01200023  RH  052%=      5-min Rain = 0
KBR1 150447Z 23006KT 12/02 A2993 RMK A01 T01200023  RH  051%=      5-min Rain = 0
KBR1 150448Z 23005KT 12/02 A2993 RMK A01 T01200023  RH  051%=      5-min Rain = 0
KBR1 150449Z 23005KT 12/02 A2993 RMK A01 T01200023  RH  051%=      5-min Rain = 0
KBR1 150450Z 23005KT 12/02 A2993 RMK A01 T01210023  RH  051%=      5-min Rain = 0
KBR1 150451Z 24006KT 12/02 A2993 RMK A01 T01220023  RH  051%=      5-min Rain = 0
KBR1 150452Z 24005KT 12/02 A2993 RMK A01 T01230023  RH  051%=      5-min Rain = 0
KBR1 150453Z 24005KT 12/02 A2993 RMK A01 T01240023  RH  050%=      5-min Rain = 0
KBR1 150454Z 25005KT 12/02 A2993 RMK A01 T01230023  RH  050%=      5-min Rain = 0
KBR1 150455Z 25005KT 12/02 A2993 RMK A01 T01230023  RH  051%=      5-min Rain = 0
KBR1 150456Z 25005KT 12/02 A2993 RMK A01 T01230023  RH  050%=      5-min Rain = 0
KBR1 150457Z 25005KT 12/02 A2993 RMK A01 T01240023  RH  050%=      5-min Rain = 0
KBR1 150458Z 25004KT 13/02 A2993 RMK A01 T01250023  RH  050%=      5-min Rain = 0
KBR1 150459Z 25004KT 13/02 A2993 RMK A01 T01250022  RH  049%=      5-min Rain = 0

Page generated in 0.0719 seconds.